<?xml version="1.0" encoding="UTF-8" standalone="no" ?>
<gpx xmlns="http://www.topografix.com/GPX/1/1" xmlns:xsi="http://www.w3.org/2001/XMLSchema-instance" xsi:schemaLocation="http://www.topografix.com/GPX/1/1 http://www.topografix.com/GPX/1/1/gpx.xsd" version="1.1" creator="VisuGPX - https://www.visugpx.com">
  <metadata>
    <name>Rando St VroixduMont</name>
    <desc><![CDATA[Circuit du matin]]></desc>
  </metadata>
  <trk>
    <name><![CDATA[Tracé 17 avr. 2016 9:35:56 AM]]></name>
    <trkseg>
      <trkpt lat="44.59364" lon="-0.28271">
        <ele>84</ele>
        <time>2016-04-17T07:35:56Z</time>
      </trkpt>
      <trkpt lat="44.59364" lon="-0.28271">
        <ele>84</ele>
        <time>2016-04-17T07:36:12Z</time>
      </trkpt>
      <trkpt lat="44.59364" lon="-0.28271">
        <ele>84</ele>
        <time>2016-04-17T07:36:12Z</time>
      </trkpt>
      <trkpt lat="44.59359" lon="-0.28293">
        <ele>65</ele>
        <time>2016-04-17T07:46:41Z</time>
      </trkpt>
      <trkpt lat="44.59351" lon="-0.28298">
        <ele>62</ele>
        <time>2016-04-17T07:48:10Z</time>
      </trkpt>
      <trkpt lat="44.59342" lon="-0.28289">
        <ele>62</ele>
        <time>2016-04-17T07:48:14Z</time>
      </trkpt>
      <trkpt lat="44.59336" lon="-0.28288">
        <ele>62</ele>
        <time>2016-04-17T07:48:19Z</time>
      </trkpt>
      <trkpt lat="44.59327" lon="-0.2829">
        <ele>62</ele>
        <time>2016-04-17T07:49:31Z</time>
      </trkpt>
      <trkpt lat="44.59313" lon="-0.28287">
        <ele>60</ele>
        <time>2016-04-17T07:49:35Z</time>
      </trkpt>
      <trkpt lat="44.59305" lon="-0.28285">
        <ele>60</ele>
        <time>2016-04-17T07:49:39Z</time>
      </trkpt>
      <trkpt lat="44.593" lon="-0.28275">
        <ele>60</ele>
        <time>2016-04-17T07:49:46Z</time>
      </trkpt>
      <trkpt lat="44.59296" lon="-0.28266">
        <ele>60</ele>
        <time>2016-04-17T07:49:51Z</time>
      </trkpt>
      <trkpt lat="44.5929" lon="-0.28261">
        <ele>59</ele>
        <time>2016-04-17T07:50:21Z</time>
      </trkpt>
      <trkpt lat="44.59293" lon="-0.28281">
        <ele>57</ele>
        <time>2016-04-17T07:50:25Z</time>
      </trkpt>
      <trkpt lat="44.59298" lon="-0.28293">
        <ele>56</ele>
        <time>2016-04-17T07:50:30Z</time>
      </trkpt>
      <trkpt lat="44.59302" lon="-0.28303">
        <ele>55</ele>
        <time>2016-04-17T07:50:36Z</time>
      </trkpt>
      <trkpt lat="44.59306" lon="-0.2831">
        <ele>55</ele>
        <time>2016-04-17T07:51:00Z</time>
      </trkpt>
      <trkpt lat="44.5931" lon="-0.28324">
        <ele>55</ele>
        <time>2016-04-17T07:51:04Z</time>
      </trkpt>
      <trkpt lat="44.5931" lon="-0.28324">
        <ele>55</ele>
        <time>2016-04-17T07:51:25Z</time>
      </trkpt>
      <trkpt lat="44.59313" lon="-0.28339">
        <ele>55</ele>
        <time>2016-04-17T07:51:30Z</time>
      </trkpt>
      <trkpt lat="44.59313" lon="-0.28339">
        <ele>55</ele>
        <time>2016-04-17T07:51:40Z</time>
      </trkpt>
      <trkpt lat="44.59312" lon="-0.28354">
        <ele>55</ele>
        <time>2016-04-17T07:51:44Z</time>
      </trkpt>
      <trkpt lat="44.59312" lon="-0.28354">
        <ele>55</ele>
        <time>2016-04-17T07:51:51Z</time>
      </trkpt>
      <trkpt lat="44.593" lon="-0.2836">
        <ele>53</ele>
        <time>2016-04-17T07:51:55Z</time>
      </trkpt>
      <trkpt lat="44.59293" lon="-0.28368">
        <ele>52</ele>
        <time>2016-04-17T07:52:02Z</time>
      </trkpt>
      <trkpt lat="44.59285" lon="-0.28373">
        <ele>52</ele>
        <time>2016-04-17T07:52:11Z</time>
      </trkpt>
      <trkpt lat="44.59282" lon="-0.28383">
        <ele>51</ele>
        <time>2016-04-17T07:52:57Z</time>
      </trkpt>
      <trkpt lat="44.59276" lon="-0.28385">
        <ele>50</ele>
        <time>2016-04-17T07:53:40Z</time>
      </trkpt>
      <trkpt lat="44.59289" lon="-0.28381">
        <ele>49</ele>
        <time>2016-04-17T07:53:44Z</time>
      </trkpt>
      <trkpt lat="44.59289" lon="-0.28381">
        <ele>49</ele>
        <time>2016-04-17T07:54:29Z</time>
      </trkpt>
      <trkpt lat="44.59273" lon="-0.28381">
        <ele>48</ele>
        <time>2016-04-17T07:54:34Z</time>
      </trkpt>
      <trkpt lat="44.59265" lon="-0.28382">
        <ele>47</ele>
        <time>2016-04-17T07:54:40Z</time>
      </trkpt>
      <trkpt lat="44.59257" lon="-0.28378">
        <ele>47</ele>
        <time>2016-04-17T07:54:46Z</time>
      </trkpt>
      <trkpt lat="44.59249" lon="-0.28374">
        <ele>46</ele>
        <time>2016-04-17T07:54:52Z</time>
      </trkpt>
      <trkpt lat="44.59241" lon="-0.28373">
        <ele>45</ele>
        <time>2016-04-17T07:55:05Z</time>
      </trkpt>
      <trkpt lat="44.59231" lon="-0.28369">
        <ele>44</ele>
        <time>2016-04-17T07:55:09Z</time>
      </trkpt>
      <trkpt lat="44.59228" lon="-0.28366">
        <ele>43</ele>
        <time>2016-04-17T07:55:39Z</time>
      </trkpt>
      <trkpt lat="44.59215" lon="-0.28361">
        <ele>40</ele>
        <time>2016-04-17T07:55:43Z</time>
      </trkpt>
      <trkpt lat="44.5921" lon="-0.28353">
        <ele>39</ele>
        <time>2016-04-17T07:55:50Z</time>
      </trkpt>
      <trkpt lat="44.59207" lon="-0.28347">
        <ele>38</ele>
        <time>2016-04-17T07:55:59Z</time>
      </trkpt>
      <trkpt lat="44.59199" lon="-0.28339">
        <ele>37</ele>
        <time>2016-04-17T07:56:04Z</time>
      </trkpt>
      <trkpt lat="44.59191" lon="-0.28337">
        <ele>36</ele>
        <time>2016-04-17T07:56:50Z</time>
      </trkpt>
      <trkpt lat="44.59186" lon="-0.2835">
        <ele>34</ele>
        <time>2016-04-17T07:56:54Z</time>
      </trkpt>
      <trkpt lat="44.59186" lon="-0.2835">
        <ele>34</ele>
        <time>2016-04-17T07:57:09Z</time>
      </trkpt>
      <trkpt lat="44.59186" lon="-0.28364">
        <ele>34</ele>
        <time>2016-04-17T07:57:13Z</time>
      </trkpt>
      <trkpt lat="44.59186" lon="-0.28364">
        <ele>34</ele>
        <time>2016-04-17T07:59:40Z</time>
      </trkpt>
      <trkpt lat="44.5918" lon="-0.28375">
        <ele>30</ele>
        <time>2016-04-17T07:59:44Z</time>
      </trkpt>
      <trkpt lat="44.5918" lon="-0.28375">
        <ele>30</ele>
        <time>2016-04-17T07:59:54Z</time>
      </trkpt>
      <trkpt lat="44.5917" lon="-0.28372">
        <ele>29</ele>
        <time>2016-04-17T07:59:58Z</time>
      </trkpt>
      <trkpt lat="44.5917" lon="-0.28372">
        <ele>29</ele>
        <time>2016-04-17T08:00:54Z</time>
      </trkpt>
      <trkpt lat="44.59161" lon="-0.28366">
        <ele>26</ele>
        <time>2016-04-17T08:00:58Z</time>
      </trkpt>
      <trkpt lat="44.59161" lon="-0.28366">
        <ele>26</ele>
        <time>2016-04-17T08:01:22Z</time>
      </trkpt>
      <trkpt lat="44.59156" lon="-0.28354">
        <ele>26</ele>
        <time>2016-04-17T08:01:26Z</time>
      </trkpt>
      <trkpt lat="44.59156" lon="-0.28354">
        <ele>26</ele>
        <time>2016-04-17T08:02:21Z</time>
      </trkpt>
      <trkpt lat="44.5915" lon="-0.28365">
        <ele>25</ele>
        <time>2016-04-17T08:02:26Z</time>
      </trkpt>
      <trkpt lat="44.5915" lon="-0.28365">
        <ele>25</ele>
        <time>2016-04-17T08:03:08Z</time>
      </trkpt>
      <trkpt lat="44.59146" lon="-0.28378">
        <ele>25</ele>
        <time>2016-04-17T08:03:12Z</time>
      </trkpt>
      <trkpt lat="44.59137" lon="-0.2838">
        <ele>24</ele>
        <time>2016-04-17T08:04:34Z</time>
      </trkpt>
      <trkpt lat="44.59137" lon="-0.2838">
        <ele>24</ele>
        <time>2016-04-17T08:07:20Z</time>
      </trkpt>
      <trkpt lat="44.59126" lon="-0.28388">
        <ele>23</ele>
        <time>2016-04-17T08:07:25Z</time>
      </trkpt>
      <trkpt lat="44.59134" lon="-0.28394">
        <ele>21</ele>
        <time>2016-04-17T08:07:38Z</time>
      </trkpt>
      <trkpt lat="44.59127" lon="-0.28397">
        <ele>21</ele>
        <time>2016-04-17T08:07:48Z</time>
      </trkpt>
      <trkpt lat="44.59119" lon="-0.28399">
        <ele>20</ele>
        <time>2016-04-17T08:07:53Z</time>
      </trkpt>
      <trkpt lat="44.59111" lon="-0.28401">
        <ele>20</ele>
        <time>2016-04-17T08:08:00Z</time>
      </trkpt>
      <trkpt lat="44.59108" lon="-0.284">
        <ele>19</ele>
        <time>2016-04-17T08:08:15Z</time>
      </trkpt>
      <trkpt lat="44.59096" lon="-0.28404">
        <ele>18</ele>
        <time>2016-04-17T08:08:19Z</time>
      </trkpt>
      <trkpt lat="44.59088" lon="-0.28406">
        <ele>15</ele>
        <time>2016-04-17T08:09:37Z</time>
      </trkpt>
      <trkpt lat="44.59081" lon="-0.28399">
        <ele>15</ele>
        <time>2016-04-17T08:09:43Z</time>
      </trkpt>
      <trkpt lat="44.59077" lon="-0.28389">
        <ele>14</ele>
        <time>2016-04-17T08:09:49Z</time>
      </trkpt>
      <trkpt lat="44.59073" lon="-0.28376">
        <ele>14</ele>
        <time>2016-04-17T08:09:54Z</time>
      </trkpt>
      <trkpt lat="44.59073" lon="-0.28376">
        <ele>14</ele>
        <time>2016-04-17T08:10:04Z</time>
      </trkpt>
      <trkpt lat="44.59067" lon="-0.28364">
        <ele>13</ele>
        <time>2016-04-17T08:10:08Z</time>
      </trkpt>
      <trkpt lat="44.59067" lon="-0.28364">
        <ele>13</ele>
        <time>2016-04-17T08:10:25Z</time>
      </trkpt>
      <trkpt lat="44.59058" lon="-0.28368">
        <ele>13</ele>
        <time>2016-04-17T08:10:30Z</time>
      </trkpt>
      <trkpt lat="44.59049" lon="-0.28367">
        <ele>12</ele>
        <time>2016-04-17T08:11:38Z</time>
      </trkpt>
      <trkpt lat="44.59043" lon="-0.28352">
        <ele>11</ele>
        <time>2016-04-17T08:11:43Z</time>
      </trkpt>
      <trkpt lat="44.59043" lon="-0.28352">
        <ele>11</ele>
        <time>2016-04-17T08:11:53Z</time>
      </trkpt>
      <trkpt lat="44.59032" lon="-0.28341">
        <ele>10</ele>
        <time>2016-04-17T08:11:58Z</time>
      </trkpt>
      <trkpt lat="44.59031" lon="-0.2834">
        <ele>10</ele>
        <time>2016-04-17T08:12:11Z</time>
      </trkpt>
      <trkpt lat="44.59019" lon="-0.28331">
        <ele>8</ele>
        <time>2016-04-17T08:12:15Z</time>
      </trkpt>
      <trkpt lat="44.59019" lon="-0.28331">
        <ele>8</ele>
        <time>2016-04-17T08:12:27Z</time>
      </trkpt>
      <trkpt lat="44.59007" lon="-0.28326">
        <ele>5</ele>
        <time>2016-04-17T08:12:31Z</time>
      </trkpt>
      <trkpt lat="44.59007" lon="-0.28326">
        <ele>5</ele>
        <time>2016-04-17T08:12:41Z</time>
      </trkpt>
      <trkpt lat="44.58998" lon="-0.28315">
        <ele>2</ele>
        <time>2016-04-17T08:12:45Z</time>
      </trkpt>
      <trkpt lat="44.58998" lon="-0.28315">
        <ele>2</ele>
        <time>2016-04-17T08:12:53Z</time>
      </trkpt>
      <trkpt lat="44.58991" lon="-0.28299">
        <ele>-2</ele>
        <time>2016-04-17T08:12:57Z</time>
      </trkpt>
      <trkpt lat="44.58987" lon="-0.2829">
        <ele>-4</ele>
        <time>2016-04-17T08:13:13Z</time>
      </trkpt>
      <trkpt lat="44.58981" lon="-0.28276">
        <ele>-8</ele>
        <time>2016-04-17T08:13:18Z</time>
      </trkpt>
      <trkpt lat="44.58981" lon="-0.28276">
        <ele>-8</ele>
        <time>2016-04-17T08:13:27Z</time>
      </trkpt>
      <trkpt lat="44.58973" lon="-0.28262">
        <ele>-13</ele>
        <time>2016-04-17T08:13:32Z</time>
      </trkpt>
      <trkpt lat="44.58968" lon="-0.28252">
        <ele>-15</ele>
        <time>2016-04-17T08:13:41Z</time>
      </trkpt>
      <trkpt lat="44.58963" lon="-0.28242">
        <ele>-17</ele>
        <time>2016-04-17T08:13:49Z</time>
      </trkpt>
      <trkpt lat="44.58959" lon="-0.28231">
        <ele>-20</ele>
        <time>2016-04-17T08:13:58Z</time>
      </trkpt>
      <trkpt lat="44.58953" lon="-0.28222">
        <ele>-22</ele>
        <time>2016-04-17T08:14:10Z</time>
      </trkpt>
      <trkpt lat="44.5895" lon="-0.28215">
        <ele>-23</ele>
        <time>2016-04-17T08:14:24Z</time>
      </trkpt>
      <trkpt lat="44.58943" lon="-0.28202">
        <ele>-27</ele>
        <time>2016-04-17T08:14:29Z</time>
      </trkpt>
      <trkpt lat="44.58939" lon="-0.28192">
        <ele>-30</ele>
        <time>2016-04-17T08:14:37Z</time>
      </trkpt>
      <trkpt lat="44.58938" lon="-0.28188">
        <ele>-31</ele>
        <time>2016-04-17T08:14:50Z</time>
      </trkpt>
      <trkpt lat="44.58931" lon="-0.28174">
        <ele>-34</ele>
        <time>2016-04-17T08:14:54Z</time>
      </trkpt>
      <trkpt lat="44.58931" lon="-0.28174">
        <ele>-34</ele>
        <time>2016-04-17T08:15:05Z</time>
      </trkpt>
      <trkpt lat="44.58923" lon="-0.28161">
        <ele>-36</ele>
        <time>2016-04-17T08:15:09Z</time>
      </trkpt>
      <trkpt lat="44.58923" lon="-0.28161">
        <ele>-36</ele>
        <time>2016-04-17T08:15:18Z</time>
      </trkpt>
      <trkpt lat="44.58919" lon="-0.28146">
        <ele>-38</ele>
        <time>2016-04-17T08:15:22Z</time>
      </trkpt>
      <trkpt lat="44.58919" lon="-0.28146">
        <ele>-38</ele>
        <time>2016-04-17T08:15:34Z</time>
      </trkpt>
      <trkpt lat="44.58913" lon="-0.28132">
        <ele>-40</ele>
        <time>2016-04-17T08:15:38Z</time>
      </trkpt>
      <trkpt lat="44.58913" lon="-0.28132">
        <ele>-40</ele>
        <time>2016-04-17T08:15:50Z</time>
      </trkpt>
      <trkpt lat="44.58905" lon="-0.2812">
        <ele>-41</ele>
        <time>2016-04-17T08:15:54Z</time>
      </trkpt>
      <trkpt lat="44.58905" lon="-0.2812">
        <ele>-41</ele>
        <time>2016-04-17T08:16:32Z</time>
      </trkpt>
      <trkpt lat="44.58895" lon="-0.28113">
        <ele>-40</ele>
        <time>2016-04-17T08:16:36Z</time>
      </trkpt>
      <trkpt lat="44.58895" lon="-0.28113">
        <ele>-40</ele>
        <time>2016-04-17T08:16:57Z</time>
      </trkpt>
      <trkpt lat="44.58889" lon="-0.28101">
        <ele>-41</ele>
        <time>2016-04-17T08:17:02Z</time>
      </trkpt>
      <trkpt lat="44.58889" lon="-0.28101">
        <ele>-41</ele>
        <time>2016-04-17T08:17:11Z</time>
      </trkpt>
      <trkpt lat="44.58877" lon="-0.28089">
        <ele>-42</ele>
        <time>2016-04-17T08:17:15Z</time>
      </trkpt>
      <trkpt lat="44.58877" lon="-0.28089">
        <ele>-42</ele>
        <time>2016-04-17T08:17:23Z</time>
      </trkpt>
      <trkpt lat="44.58868" lon="-0.28078">
        <ele>-42</ele>
        <time>2016-04-17T08:17:27Z</time>
      </trkpt>
      <trkpt lat="44.58863" lon="-0.28074">
        <ele>-43</ele>
        <time>2016-04-17T08:17:43Z</time>
      </trkpt>
      <trkpt lat="44.58851" lon="-0.28079">
        <ele>-43</ele>
        <time>2016-04-17T08:17:48Z</time>
      </trkpt>
      <trkpt lat="44.58846" lon="-0.28087">
        <ele>-44</ele>
        <time>2016-04-17T08:18:03Z</time>
      </trkpt>
      <trkpt lat="44.58837" lon="-0.28095">
        <ele>-44</ele>
        <time>2016-04-17T08:18:08Z</time>
      </trkpt>
      <trkpt lat="44.58829" lon="-0.28101">
        <ele>-44</ele>
        <time>2016-04-17T08:18:16Z</time>
      </trkpt>
      <trkpt lat="44.58822" lon="-0.28109">
        <ele>-45</ele>
        <time>2016-04-17T08:18:25Z</time>
      </trkpt>
      <trkpt lat="44.58819" lon="-0.28113">
        <ele>-45</ele>
        <time>2016-04-17T08:18:39Z</time>
      </trkpt>
      <trkpt lat="44.58809" lon="-0.28126">
        <ele>-45</ele>
        <time>2016-04-17T08:18:44Z</time>
      </trkpt>
      <trkpt lat="44.58808" lon="-0.28126">
        <ele>-45</ele>
        <time>2016-04-17T08:18:57Z</time>
      </trkpt>
      <trkpt lat="44.58797" lon="-0.28136">
        <ele>-45</ele>
        <time>2016-04-17T08:19:01Z</time>
      </trkpt>
      <trkpt lat="44.58791" lon="-0.28143">
        <ele>-45</ele>
        <time>2016-04-17T08:19:08Z</time>
      </trkpt>
      <trkpt lat="44.58784" lon="-0.28148">
        <ele>-45</ele>
        <time>2016-04-17T08:19:15Z</time>
      </trkpt>
      <trkpt lat="44.58777" lon="-0.28155">
        <ele>-45</ele>
        <time>2016-04-17T08:19:23Z</time>
      </trkpt>
      <trkpt lat="44.5877" lon="-0.28163">
        <ele>-46</ele>
        <time>2016-04-17T08:19:32Z</time>
      </trkpt>
      <trkpt lat="44.58763" lon="-0.28169">
        <ele>-45</ele>
        <time>2016-04-17T08:19:42Z</time>
      </trkpt>
      <trkpt lat="44.58756" lon="-0.28177">
        <ele>-45</ele>
        <time>2016-04-17T08:19:51Z</time>
      </trkpt>
      <trkpt lat="44.58751" lon="-0.28183">
        <ele>-45</ele>
        <time>2016-04-17T08:20:01Z</time>
      </trkpt>
      <trkpt lat="44.58743" lon="-0.2819">
        <ele>-45</ele>
        <time>2016-04-17T08:20:06Z</time>
      </trkpt>
      <trkpt lat="44.58735" lon="-0.28196">
        <ele>-45</ele>
        <time>2016-04-17T08:20:13Z</time>
      </trkpt>
      <trkpt lat="44.58729" lon="-0.28203">
        <ele>-45</ele>
        <time>2016-04-17T08:20:20Z</time>
      </trkpt>
      <trkpt lat="44.58723" lon="-0.28211">
        <ele>-45</ele>
        <time>2016-04-17T08:20:28Z</time>
      </trkpt>
      <trkpt lat="44.58715" lon="-0.28218">
        <ele>-45</ele>
        <time>2016-04-17T08:20:36Z</time>
      </trkpt>
      <trkpt lat="44.58709" lon="-0.28225">
        <ele>-45</ele>
        <time>2016-04-17T08:20:43Z</time>
      </trkpt>
      <trkpt lat="44.58702" lon="-0.28233">
        <ele>-44</ele>
        <time>2016-04-17T08:20:52Z</time>
      </trkpt>
      <trkpt lat="44.58696" lon="-0.2824">
        <ele>-44</ele>
        <time>2016-04-17T08:21:00Z</time>
      </trkpt>
      <trkpt lat="44.58689" lon="-0.28248">
        <ele>-44</ele>
        <time>2016-04-17T08:21:08Z</time>
      </trkpt>
      <trkpt lat="44.58682" lon="-0.28254">
        <ele>-44</ele>
        <time>2016-04-17T08:21:16Z</time>
      </trkpt>
      <trkpt lat="44.58676" lon="-0.28262">
        <ele>-44</ele>
        <time>2016-04-17T08:21:24Z</time>
      </trkpt>
      <trkpt lat="44.58668" lon="-0.28268">
        <ele>-43</ele>
        <time>2016-04-17T08:21:31Z</time>
      </trkpt>
      <trkpt lat="44.5866" lon="-0.28274">
        <ele>-43</ele>
        <time>2016-04-17T08:21:38Z</time>
      </trkpt>
      <trkpt lat="44.58655" lon="-0.2828">
        <ele>-44</ele>
        <time>2016-04-17T08:21:47Z</time>
      </trkpt>
      <trkpt lat="44.58649" lon="-0.28288">
        <ele>-44</ele>
        <time>2016-04-17T08:21:57Z</time>
      </trkpt>
      <trkpt lat="44.58639" lon="-0.28298">
        <ele>-44</ele>
        <time>2016-04-17T08:22:02Z</time>
      </trkpt>
      <trkpt lat="44.58633" lon="-0.28304">
        <ele>-44</ele>
        <time>2016-04-17T08:22:18Z</time>
      </trkpt>
      <trkpt lat="44.58623" lon="-0.28314">
        <ele>-45</ele>
        <time>2016-04-17T08:22:23Z</time>
      </trkpt>
      <trkpt lat="44.58623" lon="-0.28314">
        <ele>-45</ele>
        <time>2016-04-17T08:22:32Z</time>
      </trkpt>
      <trkpt lat="44.58613" lon="-0.28323">
        <ele>-45</ele>
        <time>2016-04-17T08:22:36Z</time>
      </trkpt>
      <trkpt lat="44.58613" lon="-0.28323">
        <ele>-45</ele>
        <time>2016-04-17T08:22:48Z</time>
      </trkpt>
      <trkpt lat="44.58603" lon="-0.28334">
        <ele>-45</ele>
        <time>2016-04-17T08:22:53Z</time>
      </trkpt>
      <trkpt lat="44.58596" lon="-0.2834">
        <ele>-44</ele>
        <time>2016-04-17T08:23:00Z</time>
      </trkpt>
      <trkpt lat="44.58589" lon="-0.28346">
        <ele>-44</ele>
        <time>2016-04-17T08:23:07Z</time>
      </trkpt>
      <trkpt lat="44.58587" lon="-0.28346">
        <ele>-44</ele>
        <time>2016-04-17T08:23:17Z</time>
      </trkpt>
      <trkpt lat="44.58577" lon="-0.2836">
        <ele>-44</ele>
        <time>2016-04-17T08:23:22Z</time>
      </trkpt>
      <trkpt lat="44.58577" lon="-0.2836">
        <ele>-44</ele>
        <time>2016-04-17T08:23:31Z</time>
      </trkpt>
      <trkpt lat="44.58565" lon="-0.2837">
        <ele>-44</ele>
        <time>2016-04-17T08:23:36Z</time>
      </trkpt>
      <trkpt lat="44.58559" lon="-0.28376">
        <ele>-44</ele>
        <time>2016-04-17T08:23:54Z</time>
      </trkpt>
      <trkpt lat="44.58552" lon="-0.28388">
        <ele>-44</ele>
        <time>2016-04-17T08:23:58Z</time>
      </trkpt>
      <trkpt lat="44.58552" lon="-0.28388">
        <ele>-44</ele>
        <time>2016-04-17T08:26:57Z</time>
      </trkpt>
      <trkpt lat="44.58561" lon="-0.28399">
        <ele>-44</ele>
        <time>2016-04-17T08:27:01Z</time>
      </trkpt>
      <trkpt lat="44.58569" lon="-0.28404">
        <ele>-44</ele>
        <time>2016-04-17T08:27:14Z</time>
      </trkpt>
      <trkpt lat="44.58571" lon="-0.28406">
        <ele>-44</ele>
        <time>2016-04-17T08:27:28Z</time>
      </trkpt>
      <trkpt lat="44.58579" lon="-0.28418">
        <ele>-45</ele>
        <time>2016-04-17T08:27:32Z</time>
      </trkpt>
      <trkpt lat="44.58586" lon="-0.28425">
        <ele>-44</ele>
        <time>2016-04-17T08:27:39Z</time>
      </trkpt>
      <trkpt lat="44.58592" lon="-0.28432">
        <ele>-44</ele>
        <time>2016-04-17T08:27:46Z</time>
      </trkpt>
      <trkpt lat="44.58596" lon="-0.28442">
        <ele>-44</ele>
        <time>2016-04-17T08:27:53Z</time>
      </trkpt>
      <trkpt lat="44.58598" lon="-0.28447">
        <ele>-44</ele>
        <time>2016-04-17T08:28:05Z</time>
      </trkpt>
      <trkpt lat="44.58605" lon="-0.28462">
        <ele>-44</ele>
        <time>2016-04-17T08:28:10Z</time>
      </trkpt>
      <trkpt lat="44.58611" lon="-0.28471">
        <ele>-44</ele>
        <time>2016-04-17T08:28:24Z</time>
      </trkpt>
      <trkpt lat="44.58618" lon="-0.28485">
        <ele>-45</ele>
        <time>2016-04-17T08:28:28Z</time>
      </trkpt>
      <trkpt lat="44.58622" lon="-0.28497">
        <ele>-45</ele>
        <time>2016-04-17T08:28:35Z</time>
      </trkpt>
      <trkpt lat="44.58624" lon="-0.28509">
        <ele>-45</ele>
        <time>2016-04-17T08:28:41Z</time>
      </trkpt>
      <trkpt lat="44.58624" lon="-0.28512">
        <ele>-45</ele>
        <time>2016-04-17T08:28:51Z</time>
      </trkpt>
      <trkpt lat="44.58627" lon="-0.28529">
        <ele>-44</ele>
        <time>2016-04-17T08:28:55Z</time>
      </trkpt>
      <trkpt lat="44.58627" lon="-0.28529">
        <ele>-44</ele>
        <time>2016-04-17T08:29:03Z</time>
      </trkpt>
      <trkpt lat="44.58629" lon="-0.28549">
        <ele>-44</ele>
        <time>2016-04-17T08:29:08Z</time>
      </trkpt>
      <trkpt lat="44.5863" lon="-0.28554">
        <ele>-44</ele>
        <time>2016-04-17T08:29:17Z</time>
      </trkpt>
      <trkpt lat="44.58636" lon="-0.28565">
        <ele>-44</ele>
        <time>2016-04-17T08:29:22Z</time>
      </trkpt>
      <trkpt lat="44.58636" lon="-0.28565">
        <ele>-44</ele>
        <time>2016-04-17T08:29:28Z</time>
      </trkpt>
      <trkpt lat="44.58642" lon="-0.2858">
        <ele>-44</ele>
        <time>2016-04-17T08:29:33Z</time>
      </trkpt>
      <trkpt lat="44.58642" lon="-0.2858">
        <ele>-44</ele>
        <time>2016-04-17T08:29:40Z</time>
      </trkpt>
      <trkpt lat="44.5865" lon="-0.28593">
        <ele>-44</ele>
        <time>2016-04-17T08:29:44Z</time>
      </trkpt>
      <trkpt lat="44.58654" lon="-0.28601">
        <ele>-45</ele>
        <time>2016-04-17T08:29:57Z</time>
      </trkpt>
      <trkpt lat="44.58661" lon="-0.28614">
        <ele>-45</ele>
        <time>2016-04-17T08:30:01Z</time>
      </trkpt>
      <trkpt lat="44.58663" lon="-0.28618">
        <ele>-45</ele>
        <time>2016-04-17T08:30:09Z</time>
      </trkpt>
      <trkpt lat="44.58669" lon="-0.28627">
        <ele>-45</ele>
        <time>2016-04-17T08:30:13Z</time>
      </trkpt>
      <trkpt lat="44.5867" lon="-0.28628">
        <ele>-45</ele>
        <time>2016-04-17T08:30:22Z</time>
      </trkpt>
      <trkpt lat="44.58677" lon="-0.28639">
        <ele>-45</ele>
        <time>2016-04-17T08:30:27Z</time>
      </trkpt>
      <trkpt lat="44.58677" lon="-0.28639">
        <ele>-45</ele>
        <time>2016-04-17T08:30:37Z</time>
      </trkpt>
      <trkpt lat="44.58688" lon="-0.28645">
        <ele>-45</ele>
        <time>2016-04-17T08:30:42Z</time>
      </trkpt>
      <trkpt lat="44.58696" lon="-0.28651">
        <ele>-46</ele>
        <time>2016-04-17T08:30:49Z</time>
      </trkpt>
      <trkpt lat="44.58703" lon="-0.28657">
        <ele>-46</ele>
        <time>2016-04-17T08:31:02Z</time>
      </trkpt>
      <trkpt lat="44.5871" lon="-0.28671">
        <ele>-46</ele>
        <time>2016-04-17T08:31:06Z</time>
      </trkpt>
      <trkpt lat="44.5871" lon="-0.28671">
        <ele>-46</ele>
        <time>2016-04-17T08:31:15Z</time>
      </trkpt>
      <trkpt lat="44.58718" lon="-0.28686">
        <ele>-46</ele>
        <time>2016-04-17T08:31:20Z</time>
      </trkpt>
      <trkpt lat="44.58718" lon="-0.28686">
        <ele>-46</ele>
        <time>2016-04-17T08:31:29Z</time>
      </trkpt>
      <trkpt lat="44.58727" lon="-0.28698">
        <ele>-46</ele>
        <time>2016-04-17T08:31:33Z</time>
      </trkpt>
      <trkpt lat="44.58727" lon="-0.28698">
        <ele>-46</ele>
        <time>2016-04-17T08:31:40Z</time>
      </trkpt>
      <trkpt lat="44.58734" lon="-0.28714">
        <ele>-46</ele>
        <time>2016-04-17T08:31:45Z</time>
      </trkpt>
      <trkpt lat="44.58734" lon="-0.28714">
        <ele>-46</ele>
        <time>2016-04-17T08:31:54Z</time>
      </trkpt>
      <trkpt lat="44.58742" lon="-0.28729">
        <ele>-47</ele>
        <time>2016-04-17T08:31:59Z</time>
      </trkpt>
      <trkpt lat="44.58742" lon="-0.28729">
        <ele>-47</ele>
        <time>2016-04-17T08:32:06Z</time>
      </trkpt>
      <trkpt lat="44.58748" lon="-0.28744">
        <ele>-47</ele>
        <time>2016-04-17T08:32:11Z</time>
      </trkpt>
      <trkpt lat="44.58748" lon="-0.28744">
        <ele>-47</ele>
        <time>2016-04-17T08:32:20Z</time>
      </trkpt>
      <trkpt lat="44.58754" lon="-0.28761">
        <ele>-47</ele>
        <time>2016-04-17T08:32:25Z</time>
      </trkpt>
      <trkpt lat="44.58754" lon="-0.28761">
        <ele>-47</ele>
        <time>2016-04-17T08:32:30Z</time>
      </trkpt>
      <trkpt lat="44.58763" lon="-0.28772">
        <ele>-47</ele>
        <time>2016-04-17T08:32:35Z</time>
      </trkpt>
      <trkpt lat="44.58767" lon="-0.28784">
        <ele>-47</ele>
        <time>2016-04-17T08:32:41Z</time>
      </trkpt>
      <trkpt lat="44.58768" lon="-0.28785">
        <ele>-47</ele>
        <time>2016-04-17T08:32:51Z</time>
      </trkpt>
      <trkpt lat="44.58775" lon="-0.28799">
        <ele>-46</ele>
        <time>2016-04-17T08:32:56Z</time>
      </trkpt>
      <trkpt lat="44.58781" lon="-0.28808">
        <ele>-46</ele>
        <time>2016-04-17T08:33:03Z</time>
      </trkpt>
      <trkpt lat="44.58783" lon="-0.28811">
        <ele>-46</ele>
        <time>2016-04-17T08:33:14Z</time>
      </trkpt>
      <trkpt lat="44.58791" lon="-0.28822">
        <ele>-47</ele>
        <time>2016-04-17T08:33:18Z</time>
      </trkpt>
      <trkpt lat="44.58791" lon="-0.28822">
        <ele>-47</ele>
        <time>2016-04-17T08:33:27Z</time>
      </trkpt>
      <trkpt lat="44.58798" lon="-0.28834">
        <ele>-49</ele>
        <time>2016-04-17T08:33:31Z</time>
      </trkpt>
      <trkpt lat="44.58798" lon="-0.28834">
        <ele>-49</ele>
        <time>2016-04-17T08:33:37Z</time>
      </trkpt>
      <trkpt lat="44.58807" lon="-0.28848">
        <ele>-50</ele>
        <time>2016-04-17T08:33:42Z</time>
      </trkpt>
      <trkpt lat="44.58807" lon="-0.28848">
        <ele>-50</ele>
        <time>2016-04-17T08:33:50Z</time>
      </trkpt>
      <trkpt lat="44.58813" lon="-0.28861">
        <ele>-49</ele>
        <time>2016-04-17T08:33:54Z</time>
      </trkpt>
      <trkpt lat="44.58813" lon="-0.28861">
        <ele>-49</ele>
        <time>2016-04-17T08:34:01Z</time>
      </trkpt>
      <trkpt lat="44.5882" lon="-0.28875">
        <ele>-49</ele>
        <time>2016-04-17T08:34:06Z</time>
      </trkpt>
      <trkpt lat="44.5882" lon="-0.28875">
        <ele>-49</ele>
        <time>2016-04-17T08:34:11Z</time>
      </trkpt>
      <trkpt lat="44.58829" lon="-0.28888">
        <ele>-48</ele>
        <time>2016-04-17T08:34:16Z</time>
      </trkpt>
      <trkpt lat="44.58829" lon="-0.28888">
        <ele>-48</ele>
        <time>2016-04-17T08:34:26Z</time>
      </trkpt>
      <trkpt lat="44.58836" lon="-0.28902">
        <ele>-48</ele>
        <time>2016-04-17T08:34:30Z</time>
      </trkpt>
      <trkpt lat="44.58836" lon="-0.28902">
        <ele>-48</ele>
        <time>2016-04-17T08:34:37Z</time>
      </trkpt>
      <trkpt lat="44.58847" lon="-0.28915">
        <ele>-49</ele>
        <time>2016-04-17T08:34:41Z</time>
      </trkpt>
      <trkpt lat="44.58852" lon="-0.28925">
        <ele>-49</ele>
        <time>2016-04-17T08:34:49Z</time>
      </trkpt>
      <trkpt lat="44.58857" lon="-0.28936">
        <ele>-50</ele>
        <time>2016-04-17T08:34:54Z</time>
      </trkpt>
      <trkpt lat="44.58863" lon="-0.28946">
        <ele>-51</ele>
        <time>2016-04-17T08:35:00Z</time>
      </trkpt>
      <trkpt lat="44.58865" lon="-0.28957">
        <ele>-51</ele>
        <time>2016-04-17T08:35:13Z</time>
      </trkpt>
      <trkpt lat="44.58873" lon="-0.28971">
        <ele>-51</ele>
        <time>2016-04-17T08:35:17Z</time>
      </trkpt>
      <trkpt lat="44.58875" lon="-0.28982">
        <ele>-51</ele>
        <time>2016-04-17T08:35:22Z</time>
      </trkpt>
      <trkpt lat="44.58877" lon="-0.28993">
        <ele>-51</ele>
        <time>2016-04-17T08:35:35Z</time>
      </trkpt>
      <trkpt lat="44.58882" lon="-0.29008">
        <ele>-51</ele>
        <time>2016-04-17T08:35:39Z</time>
      </trkpt>
      <trkpt lat="44.58882" lon="-0.29008">
        <ele>-51</ele>
        <time>2016-04-17T08:35:46Z</time>
      </trkpt>
      <trkpt lat="44.58887" lon="-0.29024">
        <ele>-51</ele>
        <time>2016-04-17T08:35:50Z</time>
      </trkpt>
      <trkpt lat="44.58887" lon="-0.29024">
        <ele>-51</ele>
        <time>2016-04-17T08:35:55Z</time>
      </trkpt>
      <trkpt lat="44.58893" lon="-0.29042">
        <ele>-51</ele>
        <time>2016-04-17T08:36:00Z</time>
      </trkpt>
      <trkpt lat="44.58893" lon="-0.29042">
        <ele>-51</ele>
        <time>2016-04-17T08:36:05Z</time>
      </trkpt>
      <trkpt lat="44.58901" lon="-0.29058">
        <ele>-51</ele>
        <time>2016-04-17T08:36:10Z</time>
      </trkpt>
      <trkpt lat="44.58901" lon="-0.29058">
        <ele>-51</ele>
        <time>2016-04-17T08:36:15Z</time>
      </trkpt>
      <trkpt lat="44.58909" lon="-0.29075">
        <ele>-50</ele>
        <time>2016-04-17T08:36:20Z</time>
      </trkpt>
      <trkpt lat="44.58909" lon="-0.29075">
        <ele>-50</ele>
        <time>2016-04-17T08:36:24Z</time>
      </trkpt>
      <trkpt lat="44.58919" lon="-0.29089">
        <ele>-50</ele>
        <time>2016-04-17T08:36:28Z</time>
      </trkpt>
      <trkpt lat="44.58921" lon="-0.29095">
        <ele>-50</ele>
        <time>2016-04-17T08:36:38Z</time>
      </trkpt>
      <trkpt lat="44.58929" lon="-0.29109">
        <ele>-50</ele>
        <time>2016-04-17T08:36:42Z</time>
      </trkpt>
      <trkpt lat="44.58929" lon="-0.29109">
        <ele>-50</ele>
        <time>2016-04-17T08:36:53Z</time>
      </trkpt>
      <trkpt lat="44.58938" lon="-0.29122">
        <ele>-50</ele>
        <time>2016-04-17T08:36:57Z</time>
      </trkpt>
      <trkpt lat="44.58938" lon="-0.29122">
        <ele>-50</ele>
        <time>2016-04-17T08:37:06Z</time>
      </trkpt>
      <trkpt lat="44.58947" lon="-0.29132">
        <ele>-50</ele>
        <time>2016-04-17T08:37:11Z</time>
      </trkpt>
      <trkpt lat="44.58947" lon="-0.29132">
        <ele>-50</ele>
        <time>2016-04-17T08:37:16Z</time>
      </trkpt>
      <trkpt lat="44.58951" lon="-0.29147">
        <ele>-50</ele>
        <time>2016-04-17T08:37:20Z</time>
      </trkpt>
      <trkpt lat="44.58951" lon="-0.29147">
        <ele>-50</ele>
        <time>2016-04-17T08:37:28Z</time>
      </trkpt>
      <trkpt lat="44.58959" lon="-0.29167">
        <ele>-50</ele>
        <time>2016-04-17T08:37:32Z</time>
      </trkpt>
      <trkpt lat="44.58959" lon="-0.29167">
        <ele>-50</ele>
        <time>2016-04-17T08:37:44Z</time>
      </trkpt>
      <trkpt lat="44.58966" lon="-0.29179">
        <ele>-49</ele>
        <time>2016-04-17T08:37:48Z</time>
      </trkpt>
      <trkpt lat="44.58966" lon="-0.29179">
        <ele>-49</ele>
        <time>2016-04-17T08:37:57Z</time>
      </trkpt>
      <trkpt lat="44.58979" lon="-0.29191">
        <ele>-50</ele>
        <time>2016-04-17T08:38:02Z</time>
      </trkpt>
      <trkpt lat="44.58984" lon="-0.29196">
        <ele>-50</ele>
        <time>2016-04-17T08:38:11Z</time>
      </trkpt>
      <trkpt lat="44.5899" lon="-0.29201">
        <ele>-50</ele>
        <time>2016-04-17T08:38:23Z</time>
      </trkpt>
      <trkpt lat="44.58999" lon="-0.29214">
        <ele>-50</ele>
        <time>2016-04-17T08:38:27Z</time>
      </trkpt>
      <trkpt lat="44.59006" lon="-0.29221">
        <ele>-50</ele>
        <time>2016-04-17T08:38:33Z</time>
      </trkpt>
      <trkpt lat="44.59013" lon="-0.29227">
        <ele>-51</ele>
        <time>2016-04-17T08:38:38Z</time>
      </trkpt>
      <trkpt lat="44.5902" lon="-0.29233">
        <ele>-51</ele>
        <time>2016-04-17T08:38:44Z</time>
      </trkpt>
      <trkpt lat="44.59027" lon="-0.29241">
        <ele>-51</ele>
        <time>2016-04-17T08:38:51Z</time>
      </trkpt>
      <trkpt lat="44.59033" lon="-0.29246">
        <ele>-52</ele>
        <time>2016-04-17T08:39:01Z</time>
      </trkpt>
      <trkpt lat="44.59042" lon="-0.29251">
        <ele>-52</ele>
        <time>2016-04-17T08:39:05Z</time>
      </trkpt>
      <trkpt lat="44.59047" lon="-0.29252">
        <ele>-52</ele>
        <time>2016-04-17T08:39:16Z</time>
      </trkpt>
      <trkpt lat="44.59056" lon="-0.29263">
        <ele>-52</ele>
        <time>2016-04-17T08:39:20Z</time>
      </trkpt>
      <trkpt lat="44.59056" lon="-0.29263">
        <ele>-52</ele>
        <time>2016-04-17T08:39:29Z</time>
      </trkpt>
      <trkpt lat="44.59068" lon="-0.29277">
        <ele>-51</ele>
        <time>2016-04-17T08:39:33Z</time>
      </trkpt>
      <trkpt lat="44.5907" lon="-0.29284">
        <ele>-51</ele>
        <time>2016-04-17T08:39:53Z</time>
      </trkpt>
      <trkpt lat="44.59059" lon="-0.2928">
        <ele>-53</ele>
        <time>2016-04-17T08:39:58Z</time>
      </trkpt>
      <trkpt lat="44.59059" lon="-0.2928">
        <ele>-53</ele>
        <time>2016-04-17T08:40:11Z</time>
      </trkpt>
      <trkpt lat="44.59058" lon="-0.29264">
        <ele>-53</ele>
        <time>2016-04-17T08:40:15Z</time>
      </trkpt>
      <trkpt lat="44.59058" lon="-0.29264">
        <ele>-53</ele>
        <time>2016-04-17T08:41:15Z</time>
      </trkpt>
      <trkpt lat="44.59061" lon="-0.29249">
        <ele>-53</ele>
        <time>2016-04-17T08:41:20Z</time>
      </trkpt>
      <trkpt lat="44.59061" lon="-0.29249">
        <ele>-53</ele>
        <time>2016-04-17T08:41:26Z</time>
      </trkpt>
      <trkpt lat="44.5907" lon="-0.29236">
        <ele>-54</ele>
        <time>2016-04-17T08:41:30Z</time>
      </trkpt>
      <trkpt lat="44.59075" lon="-0.29229">
        <ele>-54</ele>
        <time>2016-04-17T08:41:40Z</time>
      </trkpt>
      <trkpt lat="44.5908" lon="-0.29219">
        <ele>-54</ele>
        <time>2016-04-17T08:41:44Z</time>
      </trkpt>
      <trkpt lat="44.5908" lon="-0.29217">
        <ele>-54</ele>
        <time>2016-04-17T08:41:53Z</time>
      </trkpt>
      <trkpt lat="44.59086" lon="-0.29201">
        <ele>-55</ele>
        <time>2016-04-17T08:41:57Z</time>
      </trkpt>
      <trkpt lat="44.59086" lon="-0.29201">
        <ele>-55</ele>
        <time>2016-04-17T08:42:27Z</time>
      </trkpt>
      <trkpt lat="44.59087" lon="-0.29186">
        <ele>-55</ele>
        <time>2016-04-17T08:42:31Z</time>
      </trkpt>
      <trkpt lat="44.59087" lon="-0.29186">
        <ele>-55</ele>
        <time>2016-04-17T08:42:40Z</time>
      </trkpt>
      <trkpt lat="44.59096" lon="-0.29172">
        <ele>-54</ele>
        <time>2016-04-17T08:42:44Z</time>
      </trkpt>
      <trkpt lat="44.59099" lon="-0.29169">
        <ele>-54</ele>
        <time>2016-04-17T08:42:56Z</time>
      </trkpt>
      <trkpt lat="44.59108" lon="-0.29157">
        <ele>-54</ele>
        <time>2016-04-17T08:43:00Z</time>
      </trkpt>
      <trkpt lat="44.59114" lon="-0.29149">
        <ele>-54</ele>
        <time>2016-04-17T08:43:07Z</time>
      </trkpt>
      <trkpt lat="44.59116" lon="-0.29146">
        <ele>-54</ele>
        <time>2016-04-17T08:43:18Z</time>
      </trkpt>
      <trkpt lat="44.59125" lon="-0.29135">
        <ele>-55</ele>
        <time>2016-04-17T08:43:22Z</time>
      </trkpt>
      <trkpt lat="44.59125" lon="-0.29135">
        <ele>-55</ele>
        <time>2016-04-17T08:43:30Z</time>
      </trkpt>
      <trkpt lat="44.59134" lon="-0.29124">
        <ele>-56</ele>
        <time>2016-04-17T08:43:35Z</time>
      </trkpt>
      <trkpt lat="44.59134" lon="-0.29124">
        <ele>-56</ele>
        <time>2016-04-17T08:43:42Z</time>
      </trkpt>
      <trkpt lat="44.59142" lon="-0.2911">
        <ele>-56</ele>
        <time>2016-04-17T08:43:47Z</time>
      </trkpt>
      <trkpt lat="44.59148" lon="-0.29101">
        <ele>-57</ele>
        <time>2016-04-17T08:43:52Z</time>
      </trkpt>
      <trkpt lat="44.5915" lon="-0.29096">
        <ele>-57</ele>
        <time>2016-04-17T08:44:03Z</time>
      </trkpt>
      <trkpt lat="44.59157" lon="-0.2908">
        <ele>-57</ele>
        <time>2016-04-17T08:44:07Z</time>
      </trkpt>
      <trkpt lat="44.59161" lon="-0.2907">
        <ele>-57</ele>
        <time>2016-04-17T08:44:12Z</time>
      </trkpt>
      <trkpt lat="44.59166" lon="-0.29061">
        <ele>-56</ele>
        <time>2016-04-17T08:44:18Z</time>
      </trkpt>
      <trkpt lat="44.59171" lon="-0.29051">
        <ele>-56</ele>
        <time>2016-04-17T08:44:25Z</time>
      </trkpt>
      <trkpt lat="44.59176" lon="-0.29042">
        <ele>-56</ele>
        <time>2016-04-17T08:44:32Z</time>
      </trkpt>
      <trkpt lat="44.59181" lon="-0.29032">
        <ele>-56</ele>
        <time>2016-04-17T08:44:40Z</time>
      </trkpt>
      <trkpt lat="44.59187" lon="-0.29023">
        <ele>-56</ele>
        <time>2016-04-17T08:44:47Z</time>
      </trkpt>
      <trkpt lat="44.59193" lon="-0.29014">
        <ele>-56</ele>
        <time>2016-04-17T08:44:54Z</time>
      </trkpt>
      <trkpt lat="44.59199" lon="-0.29007">
        <ele>-55</ele>
        <time>2016-04-17T08:45:01Z</time>
      </trkpt>
      <trkpt lat="44.59205" lon="-0.28998">
        <ele>-56</ele>
        <time>2016-04-17T08:45:08Z</time>
      </trkpt>
      <trkpt lat="44.59211" lon="-0.28989">
        <ele>-56</ele>
        <time>2016-04-17T08:45:16Z</time>
      </trkpt>
      <trkpt lat="44.59215" lon="-0.28978">
        <ele>-56</ele>
        <time>2016-04-17T08:45:24Z</time>
      </trkpt>
      <trkpt lat="44.5922" lon="-0.28968">
        <ele>-56</ele>
        <time>2016-04-17T08:45:32Z</time>
      </trkpt>
      <trkpt lat="44.59225" lon="-0.28958">
        <ele>-56</ele>
        <time>2016-04-17T08:45:41Z</time>
      </trkpt>
      <trkpt lat="44.5923" lon="-0.28948">
        <ele>-57</ele>
        <time>2016-04-17T08:45:49Z</time>
      </trkpt>
      <trkpt lat="44.59236" lon="-0.2894">
        <ele>-57</ele>
        <time>2016-04-17T08:45:58Z</time>
      </trkpt>
      <trkpt lat="44.59242" lon="-0.28931">
        <ele>-58</ele>
        <time>2016-04-17T08:46:05Z</time>
      </trkpt>
      <trkpt lat="44.59248" lon="-0.28922">
        <ele>-59</ele>
        <time>2016-04-17T08:46:12Z</time>
      </trkpt>
      <trkpt lat="44.59249" lon="-0.28918">
        <ele>-59</ele>
        <time>2016-04-17T08:46:52Z</time>
      </trkpt>
      <trkpt lat="44.59259" lon="-0.28915">
        <ele>-59</ele>
        <time>2016-04-17T08:46:56Z</time>
      </trkpt>
      <trkpt lat="44.59259" lon="-0.28915">
        <ele>-59</ele>
        <time>2016-04-17T08:47:07Z</time>
      </trkpt>
      <trkpt lat="44.59268" lon="-0.28925">
        <ele>-59</ele>
        <time>2016-04-17T08:47:12Z</time>
      </trkpt>
      <trkpt lat="44.59268" lon="-0.28925">
        <ele>-59</ele>
        <time>2016-04-17T08:47:21Z</time>
      </trkpt>
      <trkpt lat="44.59278" lon="-0.28927">
        <ele>-61</ele>
        <time>2016-04-17T08:47:26Z</time>
      </trkpt>
      <trkpt lat="44.59278" lon="-0.28927">
        <ele>-61</ele>
        <time>2016-04-17T08:47:35Z</time>
      </trkpt>
      <trkpt lat="44.59293" lon="-0.28926">
        <ele>-62</ele>
        <time>2016-04-17T08:47:40Z</time>
      </trkpt>
      <trkpt lat="44.59299" lon="-0.28924">
        <ele>-62</ele>
        <time>2016-04-17T08:47:51Z</time>
      </trkpt>
      <trkpt lat="44.59311" lon="-0.28923">
        <ele>-63</ele>
        <time>2016-04-17T08:47:55Z</time>
      </trkpt>
      <trkpt lat="44.59319" lon="-0.28922">
        <ele>-64</ele>
        <time>2016-04-17T08:48:03Z</time>
      </trkpt>
      <trkpt lat="44.59323" lon="-0.28922">
        <ele>-64</ele>
        <time>2016-04-17T08:48:15Z</time>
      </trkpt>
      <trkpt lat="44.59338" lon="-0.28918">
        <ele>-65</ele>
        <time>2016-04-17T08:48:20Z</time>
      </trkpt>
      <trkpt lat="44.59346" lon="-0.28919">
        <ele>-66</ele>
        <time>2016-04-17T08:48:26Z</time>
      </trkpt>
      <trkpt lat="44.59355" lon="-0.28917">
        <ele>-66</ele>
        <time>2016-04-17T08:48:35Z</time>
      </trkpt>
      <trkpt lat="44.59363" lon="-0.28915">
        <ele>-67</ele>
        <time>2016-04-17T08:48:43Z</time>
      </trkpt>
      <trkpt lat="44.59372" lon="-0.28914">
        <ele>-67</ele>
        <time>2016-04-17T08:48:51Z</time>
      </trkpt>
      <trkpt lat="44.5938" lon="-0.28914">
        <ele>-68</ele>
        <time>2016-04-17T08:48:58Z</time>
      </trkpt>
      <trkpt lat="44.59388" lon="-0.28913">
        <ele>-68</ele>
        <time>2016-04-17T08:49:04Z</time>
      </trkpt>
      <trkpt lat="44.59395" lon="-0.28913">
        <ele>-68</ele>
        <time>2016-04-17T08:49:12Z</time>
      </trkpt>
      <trkpt lat="44.59404" lon="-0.28912">
        <ele>-68</ele>
        <time>2016-04-17T08:49:21Z</time>
      </trkpt>
      <trkpt lat="44.59413" lon="-0.28912">
        <ele>-68</ele>
        <time>2016-04-17T08:49:30Z</time>
      </trkpt>
      <trkpt lat="44.59421" lon="-0.2891">
        <ele>-69</ele>
        <time>2016-04-17T08:49:38Z</time>
      </trkpt>
      <trkpt lat="44.59427" lon="-0.28909">
        <ele>-69</ele>
        <time>2016-04-17T08:49:47Z</time>
      </trkpt>
      <trkpt lat="44.59435" lon="-0.28907">
        <ele>-69</ele>
        <time>2016-04-17T08:49:54Z</time>
      </trkpt>
      <trkpt lat="44.59443" lon="-0.28904">
        <ele>-69</ele>
        <time>2016-04-17T08:50:01Z</time>
      </trkpt>
      <trkpt lat="44.59452" lon="-0.28901">
        <ele>-69</ele>
        <time>2016-04-17T08:50:07Z</time>
      </trkpt>
      <trkpt lat="44.5946" lon="-0.28899">
        <ele>-69</ele>
        <time>2016-04-17T08:50:14Z</time>
      </trkpt>
      <trkpt lat="44.59469" lon="-0.28897">
        <ele>-69</ele>
        <time>2016-04-17T08:50:21Z</time>
      </trkpt>
      <trkpt lat="44.59474" lon="-0.28895">
        <ele>-69</ele>
        <time>2016-04-17T08:50:30Z</time>
      </trkpt>
      <trkpt lat="44.59479" lon="-0.28893">
        <ele>-69</ele>
        <time>2016-04-17T08:50:47Z</time>
      </trkpt>
      <trkpt lat="44.59492" lon="-0.28889">
        <ele>-69</ele>
        <time>2016-04-17T08:50:51Z</time>
      </trkpt>
      <trkpt lat="44.59492" lon="-0.28889">
        <ele>-69</ele>
        <time>2016-04-17T08:51:04Z</time>
      </trkpt>
      <trkpt lat="44.59505" lon="-0.28884">
        <ele>-69</ele>
        <time>2016-04-17T08:51:08Z</time>
      </trkpt>
      <trkpt lat="44.59511" lon="-0.28876">
        <ele>-69</ele>
        <time>2016-04-17T08:51:15Z</time>
      </trkpt>
      <trkpt lat="44.59517" lon="-0.28868">
        <ele>-69</ele>
        <time>2016-04-17T08:51:23Z</time>
      </trkpt>
      <trkpt lat="44.59518" lon="-0.28868">
        <ele>-69</ele>
        <time>2016-04-17T08:51:33Z</time>
      </trkpt>
      <trkpt lat="44.59532" lon="-0.28864">
        <ele>-68</ele>
        <time>2016-04-17T08:51:38Z</time>
      </trkpt>
      <trkpt lat="44.59532" lon="-0.28864">
        <ele>-68</ele>
        <time>2016-04-17T08:52:04Z</time>
      </trkpt>
      <trkpt lat="44.5954" lon="-0.28858">
        <ele>-68</ele>
        <time>2016-04-17T08:52:08Z</time>
      </trkpt>
      <trkpt lat="44.5954" lon="-0.28858">
        <ele>-68</ele>
        <time>2016-04-17T08:53:12Z</time>
      </trkpt>
      <trkpt lat="44.59549" lon="-0.28856">
        <ele>-68</ele>
        <time>2016-04-17T08:53:16Z</time>
      </trkpt>
      <trkpt lat="44.59549" lon="-0.28856">
        <ele>-68</ele>
        <time>2016-04-17T08:56:06Z</time>
      </trkpt>
      <trkpt lat="44.59542" lon="-0.28845">
        <ele>-68</ele>
        <time>2016-04-17T08:56:10Z</time>
      </trkpt>
      <trkpt lat="44.59542" lon="-0.28845">
        <ele>-68</ele>
        <time>2016-04-17T08:56:22Z</time>
      </trkpt>
      <trkpt lat="44.5953" lon="-0.28836">
        <ele>-68</ele>
        <time>2016-04-17T08:56:26Z</time>
      </trkpt>
      <trkpt lat="44.5953" lon="-0.28836">
        <ele>-68</ele>
        <time>2016-04-17T08:56:43Z</time>
      </trkpt>
      <trkpt lat="44.59525" lon="-0.28823">
        <ele>-68</ele>
        <time>2016-04-17T08:56:47Z</time>
      </trkpt>
      <trkpt lat="44.59525" lon="-0.28823">
        <ele>-68</ele>
        <time>2016-04-17T08:56:59Z</time>
      </trkpt>
      <trkpt lat="44.5953" lon="-0.28807">
        <ele>-68</ele>
        <time>2016-04-17T08:57:04Z</time>
      </trkpt>
      <trkpt lat="44.5953" lon="-0.28807">
        <ele>-68</ele>
        <time>2016-04-17T08:57:13Z</time>
      </trkpt>
      <trkpt lat="44.5953" lon="-0.28791">
        <ele>-69</ele>
        <time>2016-04-17T08:57:17Z</time>
      </trkpt>
      <trkpt lat="44.5953" lon="-0.28791">
        <ele>-69</ele>
        <time>2016-04-17T08:57:27Z</time>
      </trkpt>
      <trkpt lat="44.59533" lon="-0.28774">
        <ele>-69</ele>
        <time>2016-04-17T08:57:31Z</time>
      </trkpt>
      <trkpt lat="44.59538" lon="-0.28767">
        <ele>-69</ele>
        <time>2016-04-17T08:57:37Z</time>
      </trkpt>
      <trkpt lat="44.59544" lon="-0.28758">
        <ele>-70</ele>
        <time>2016-04-17T08:57:44Z</time>
      </trkpt>
      <trkpt lat="44.59544" lon="-0.28748">
        <ele>-69</ele>
        <time>2016-04-17T08:57:49Z</time>
      </trkpt>
      <trkpt lat="44.5955" lon="-0.2874">
        <ele>-69</ele>
        <time>2016-04-17T08:57:56Z</time>
      </trkpt>
      <trkpt lat="44.59556" lon="-0.28733">
        <ele>-69</ele>
        <time>2016-04-17T08:58:02Z</time>
      </trkpt>
      <trkpt lat="44.59562" lon="-0.28726">
        <ele>-69</ele>
        <time>2016-04-17T08:58:08Z</time>
      </trkpt>
      <trkpt lat="44.5957" lon="-0.28719">
        <ele>-69</ele>
        <time>2016-04-17T08:58:14Z</time>
      </trkpt>
      <trkpt lat="44.59575" lon="-0.28709">
        <ele>-69</ele>
        <time>2016-04-17T08:58:24Z</time>
      </trkpt>
      <trkpt lat="44.59575" lon="-0.28707">
        <ele>-69</ele>
        <time>2016-04-17T08:58:37Z</time>
      </trkpt>
      <trkpt lat="44.5958" lon="-0.28688">
        <ele>-68</ele>
        <time>2016-04-17T08:58:42Z</time>
      </trkpt>
      <trkpt lat="44.59585" lon="-0.28679">
        <ele>-68</ele>
        <time>2016-04-17T08:58:50Z</time>
      </trkpt>
      <trkpt lat="44.59585" lon="-0.28673">
        <ele>-68</ele>
        <time>2016-04-17T08:59:04Z</time>
      </trkpt>
      <trkpt lat="44.59592" lon="-0.28659">
        <ele>-68</ele>
        <time>2016-04-17T08:59:09Z</time>
      </trkpt>
      <trkpt lat="44.59592" lon="-0.28659">
        <ele>-68</ele>
        <time>2016-04-17T08:59:17Z</time>
      </trkpt>
      <trkpt lat="44.59597" lon="-0.28643">
        <ele>-68</ele>
        <time>2016-04-17T08:59:22Z</time>
      </trkpt>
      <trkpt lat="44.59597" lon="-0.28643">
        <ele>-68</ele>
        <time>2016-04-17T08:59:29Z</time>
      </trkpt>
      <trkpt lat="44.59603" lon="-0.28628">
        <ele>-67</ele>
        <time>2016-04-17T08:59:33Z</time>
      </trkpt>
      <trkpt lat="44.59608" lon="-0.28619">
        <ele>-67</ele>
        <time>2016-04-17T08:59:41Z</time>
      </trkpt>
      <trkpt lat="44.5961" lon="-0.28617">
        <ele>-67</ele>
        <time>2016-04-17T08:59:50Z</time>
      </trkpt>
      <trkpt lat="44.59618" lon="-0.28605">
        <ele>-66</ele>
        <time>2016-04-17T08:59:55Z</time>
      </trkpt>
      <trkpt lat="44.59618" lon="-0.28605">
        <ele>-66</ele>
        <time>2016-04-17T09:00:01Z</time>
      </trkpt>
      <trkpt lat="44.59628" lon="-0.28594">
        <ele>-64</ele>
        <time>2016-04-17T09:00:06Z</time>
      </trkpt>
      <trkpt lat="44.59628" lon="-0.28594">
        <ele>-64</ele>
        <time>2016-04-17T09:00:15Z</time>
      </trkpt>
      <trkpt lat="44.59631" lon="-0.28578">
        <ele>-61</ele>
        <time>2016-04-17T09:00:19Z</time>
      </trkpt>
      <trkpt lat="44.59631" lon="-0.28578">
        <ele>-61</ele>
        <time>2016-04-17T09:00:29Z</time>
      </trkpt>
      <trkpt lat="44.59633" lon="-0.2856">
        <ele>-59</ele>
        <time>2016-04-17T09:00:33Z</time>
      </trkpt>
      <trkpt lat="44.59633" lon="-0.2856">
        <ele>-59</ele>
        <time>2016-04-17T09:00:44Z</time>
      </trkpt>
      <trkpt lat="44.59636" lon="-0.28544">
        <ele>-58</ele>
        <time>2016-04-17T09:00:48Z</time>
      </trkpt>
      <trkpt lat="44.59636" lon="-0.28544">
        <ele>-58</ele>
        <time>2016-04-17T09:00:57Z</time>
      </trkpt>
      <trkpt lat="44.59641" lon="-0.28527">
        <ele>-56</ele>
        <time>2016-04-17T09:01:02Z</time>
      </trkpt>
      <trkpt lat="44.59641" lon="-0.28527">
        <ele>-56</ele>
        <time>2016-04-17T09:01:10Z</time>
      </trkpt>
      <trkpt lat="44.59644" lon="-0.28511">
        <ele>-55</ele>
        <time>2016-04-17T09:01:14Z</time>
      </trkpt>
      <trkpt lat="44.59643" lon="-0.28505">
        <ele>-54</ele>
        <time>2016-04-17T09:01:28Z</time>
      </trkpt>
      <trkpt lat="44.59639" lon="-0.28489">
        <ele>-52</ele>
        <time>2016-04-17T09:01:32Z</time>
      </trkpt>
      <trkpt lat="44.59639" lon="-0.28489">
        <ele>-52</ele>
        <time>2016-04-17T09:01:42Z</time>
      </trkpt>
      <trkpt lat="44.59636" lon="-0.28473">
        <ele>-51</ele>
        <time>2016-04-17T09:01:47Z</time>
      </trkpt>
      <trkpt lat="44.59636" lon="-0.28473">
        <ele>-51</ele>
        <time>2016-04-17T09:01:55Z</time>
      </trkpt>
      <trkpt lat="44.59635" lon="-0.28456">
        <ele>-50</ele>
        <time>2016-04-17T09:02:00Z</time>
      </trkpt>
      <trkpt lat="44.59635" lon="-0.28456">
        <ele>-50</ele>
        <time>2016-04-17T09:02:10Z</time>
      </trkpt>
      <trkpt lat="44.59634" lon="-0.28437">
        <ele>-50</ele>
        <time>2016-04-17T09:02:14Z</time>
      </trkpt>
      <trkpt lat="44.59634" lon="-0.28437">
        <ele>-50</ele>
        <time>2016-04-17T09:02:24Z</time>
      </trkpt>
      <trkpt lat="44.59634" lon="-0.28418">
        <ele>-50</ele>
        <time>2016-04-17T09:02:29Z</time>
      </trkpt>
      <trkpt lat="44.59635" lon="-0.28417">
        <ele>-49</ele>
        <time>2016-04-17T09:02:41Z</time>
      </trkpt>
      <trkpt lat="44.59638" lon="-0.284">
        <ele>-49</ele>
        <time>2016-04-17T09:02:45Z</time>
      </trkpt>
      <trkpt lat="44.59638" lon="-0.284">
        <ele>-49</ele>
        <time>2016-04-17T09:02:52Z</time>
      </trkpt>
      <trkpt lat="44.59632" lon="-0.28383">
        <ele>-47</ele>
        <time>2016-04-17T09:02:57Z</time>
      </trkpt>
      <trkpt lat="44.59626" lon="-0.28374">
        <ele>-47</ele>
        <time>2016-04-17T09:03:03Z</time>
      </trkpt>
      <trkpt lat="44.59621" lon="-0.28366">
        <ele>-47</ele>
        <time>2016-04-17T09:03:09Z</time>
      </trkpt>
      <trkpt lat="44.59624" lon="-0.28354">
        <ele>-46</ele>
        <time>2016-04-17T09:03:18Z</time>
      </trkpt>
      <trkpt lat="44.59629" lon="-0.28344">
        <ele>-45</ele>
        <time>2016-04-17T09:03:23Z</time>
      </trkpt>
      <trkpt lat="44.59629" lon="-0.28333">
        <ele>-43</ele>
        <time>2016-04-17T09:03:32Z</time>
      </trkpt>
      <trkpt lat="44.59633" lon="-0.28325">
        <ele>-42</ele>
        <time>2016-04-17T09:03:48Z</time>
      </trkpt>
      <trkpt lat="44.59635" lon="-0.28309">
        <ele>-40</ele>
        <time>2016-04-17T09:03:53Z</time>
      </trkpt>
      <trkpt lat="44.59635" lon="-0.28309">
        <ele>-40</ele>
        <time>2016-04-17T09:04:18Z</time>
      </trkpt>
      <trkpt lat="44.59633" lon="-0.28292">
        <ele>-39</ele>
        <time>2016-04-17T09:04:22Z</time>
      </trkpt>
      <trkpt lat="44.59632" lon="-0.2828">
        <ele>-39</ele>
        <time>2016-04-17T09:04:31Z</time>
      </trkpt>
      <trkpt lat="44.5963" lon="-0.28269">
        <ele>-40</ele>
        <time>2016-04-17T09:04:38Z</time>
      </trkpt>
      <trkpt lat="44.59631" lon="-0.28257">
        <ele>-40</ele>
        <time>2016-04-17T09:04:45Z</time>
      </trkpt>
      <trkpt lat="44.59632" lon="-0.28245">
        <ele>-41</ele>
        <time>2016-04-17T09:04:52Z</time>
      </trkpt>
      <trkpt lat="44.5963" lon="-0.28234">
        <ele>-41</ele>
        <time>2016-04-17T09:04:59Z</time>
      </trkpt>
      <trkpt lat="44.59629" lon="-0.28223">
        <ele>-41</ele>
        <time>2016-04-17T09:05:04Z</time>
      </trkpt>
      <trkpt lat="44.59628" lon="-0.2821">
        <ele>-41</ele>
        <time>2016-04-17T09:05:10Z</time>
      </trkpt>
      <trkpt lat="44.59628" lon="-0.28198">
        <ele>-41</ele>
        <time>2016-04-17T09:05:18Z</time>
      </trkpt>
      <trkpt lat="44.59623" lon="-0.28189">
        <ele>-43</ele>
        <time>2016-04-17T09:06:31Z</time>
      </trkpt>
      <trkpt lat="44.59627" lon="-0.28186">
        <ele>-43</ele>
        <time>2016-04-17T09:06:45Z</time>
      </trkpt>
      <trkpt lat="44.59638" lon="-0.28189">
        <ele>-42</ele>
        <time>2016-04-17T09:06:50Z</time>
      </trkpt>
      <trkpt lat="44.59638" lon="-0.28189">
        <ele>-42</ele>
        <time>2016-04-17T09:06:58Z</time>
      </trkpt>
      <trkpt lat="44.59648" lon="-0.28198">
        <ele>-42</ele>
        <time>2016-04-17T09:07:02Z</time>
      </trkpt>
      <trkpt lat="44.59648" lon="-0.28198">
        <ele>-42</ele>
        <time>2016-04-17T09:07:09Z</time>
      </trkpt>
      <trkpt lat="44.59656" lon="-0.28209">
        <ele>-42</ele>
        <time>2016-04-17T09:07:13Z</time>
      </trkpt>
      <trkpt lat="44.59656" lon="-0.28209">
        <ele>-42</ele>
        <time>2016-04-17T09:07:20Z</time>
      </trkpt>
      <trkpt lat="44.59659" lon="-0.28225">
        <ele>-40</ele>
        <time>2016-04-17T09:07:24Z</time>
      </trkpt>
      <trkpt lat="44.59659" lon="-0.28225">
        <ele>-40</ele>
        <time>2016-04-17T09:07:33Z</time>
      </trkpt>
      <trkpt lat="44.59662" lon="-0.28241">
        <ele>-40</ele>
        <time>2016-04-17T09:07:37Z</time>
      </trkpt>
      <trkpt lat="44.59669" lon="-0.28247">
        <ele>-39</ele>
        <time>2016-04-17T09:07:43Z</time>
      </trkpt>
      <trkpt lat="44.59676" lon="-0.28252">
        <ele>-38</ele>
        <time>2016-04-17T09:07:50Z</time>
      </trkpt>
      <trkpt lat="44.59682" lon="-0.28262">
        <ele>-37</ele>
        <time>2016-04-17T09:07:58Z</time>
      </trkpt>
      <trkpt lat="44.59686" lon="-0.28266">
        <ele>-36</ele>
        <time>2016-04-17T09:08:11Z</time>
      </trkpt>
      <trkpt lat="44.59696" lon="-0.28269">
        <ele>-34</ele>
        <time>2016-04-17T09:08:16Z</time>
      </trkpt>
      <trkpt lat="44.59696" lon="-0.28269">
        <ele>-34</ele>
        <time>2016-04-17T09:08:26Z</time>
      </trkpt>
      <trkpt lat="44.59707" lon="-0.28264">
        <ele>-31</ele>
        <time>2016-04-17T09:08:31Z</time>
      </trkpt>
      <trkpt lat="44.59707" lon="-0.28264">
        <ele>-31</ele>
        <time>2016-04-17T09:08:51Z</time>
      </trkpt>
      <trkpt lat="44.59716" lon="-0.2827">
        <ele>-29</ele>
        <time>2016-04-17T09:08:56Z</time>
      </trkpt>
      <trkpt lat="44.59716" lon="-0.2827">
        <ele>-29</ele>
        <time>2016-04-17T09:09:09Z</time>
      </trkpt>
      <trkpt lat="44.5973" lon="-0.28273">
        <ele>-27</ele>
        <time>2016-04-17T09:09:13Z</time>
      </trkpt>
      <trkpt lat="44.5973" lon="-0.28273">
        <ele>-27</ele>
        <time>2016-04-17T09:09:26Z</time>
      </trkpt>
      <trkpt lat="44.59737" lon="-0.28286">
        <ele>-25</ele>
        <time>2016-04-17T09:09:30Z</time>
      </trkpt>
      <trkpt lat="44.59737" lon="-0.28286">
        <ele>-25</ele>
        <time>2016-04-17T09:09:41Z</time>
      </trkpt>
      <trkpt lat="44.59742" lon="-0.28299">
        <ele>-24</ele>
        <time>2016-04-17T09:09:45Z</time>
      </trkpt>
      <trkpt lat="44.59742" lon="-0.28299">
        <ele>-24</ele>
        <time>2016-04-17T09:10:00Z</time>
      </trkpt>
      <trkpt lat="44.59748" lon="-0.28312">
        <ele>-22</ele>
        <time>2016-04-17T09:10:04Z</time>
      </trkpt>
      <trkpt lat="44.59748" lon="-0.28312">
        <ele>-22</ele>
        <time>2016-04-17T09:10:15Z</time>
      </trkpt>
      <trkpt lat="44.59759" lon="-0.28319">
        <ele>-20</ele>
        <time>2016-04-17T09:10:19Z</time>
      </trkpt>
      <trkpt lat="44.59759" lon="-0.28319">
        <ele>-20</ele>
        <time>2016-04-17T09:10:29Z</time>
      </trkpt>
      <trkpt lat="44.5977" lon="-0.28325">
        <ele>-19</ele>
        <time>2016-04-17T09:10:34Z</time>
      </trkpt>
      <trkpt lat="44.5977" lon="-0.28325">
        <ele>-19</ele>
        <time>2016-04-17T09:10:44Z</time>
      </trkpt>
      <trkpt lat="44.5978" lon="-0.28327">
        <ele>-18</ele>
        <time>2016-04-17T09:10:49Z</time>
      </trkpt>
      <trkpt lat="44.5978" lon="-0.28327">
        <ele>-18</ele>
        <time>2016-04-17T09:10:58Z</time>
      </trkpt>
      <trkpt lat="44.59794" lon="-0.28327">
        <ele>-17</ele>
        <time>2016-04-17T09:11:03Z</time>
      </trkpt>
      <trkpt lat="44.59794" lon="-0.28327">
        <ele>-17</ele>
        <time>2016-04-17T09:11:12Z</time>
      </trkpt>
      <trkpt lat="44.59806" lon="-0.28331">
        <ele>-16</ele>
        <time>2016-04-17T09:11:16Z</time>
      </trkpt>
      <trkpt lat="44.59806" lon="-0.28331">
        <ele>-16</ele>
        <time>2016-04-17T09:11:26Z</time>
      </trkpt>
      <trkpt lat="44.59819" lon="-0.28329">
        <ele>-16</ele>
        <time>2016-04-17T09:11:31Z</time>
      </trkpt>
      <trkpt lat="44.59831" lon="-0.28323">
        <ele>-15</ele>
        <time>2016-04-17T09:11:36Z</time>
      </trkpt>
      <trkpt lat="44.59832" lon="-0.28325">
        <ele>-15</ele>
        <time>2016-04-17T09:11:59Z</time>
      </trkpt>
      <trkpt lat="44.59842" lon="-0.2832">
        <ele>-15</ele>
        <time>2016-04-17T09:12:04Z</time>
      </trkpt>
      <trkpt lat="44.59842" lon="-0.2832">
        <ele>-15</ele>
        <time>2016-04-17T09:12:22Z</time>
      </trkpt>
      <trkpt lat="44.5985" lon="-0.28309">
        <ele>-14</ele>
        <time>2016-04-17T09:12:26Z</time>
      </trkpt>
      <trkpt lat="44.5985" lon="-0.28309">
        <ele>-14</ele>
        <time>2016-04-17T09:12:39Z</time>
      </trkpt>
      <trkpt lat="44.59862" lon="-0.28304">
        <ele>-14</ele>
        <time>2016-04-17T09:12:44Z</time>
      </trkpt>
      <trkpt lat="44.59862" lon="-0.28304">
        <ele>-14</ele>
        <time>2016-04-17T09:12:51Z</time>
      </trkpt>
      <trkpt lat="44.59873" lon="-0.28295">
        <ele>-14</ele>
        <time>2016-04-17T09:12:55Z</time>
      </trkpt>
      <trkpt lat="44.5988" lon="-0.28288">
        <ele>-13</ele>
        <time>2016-04-17T09:13:13Z</time>
      </trkpt>
      <trkpt lat="44.59888" lon="-0.28272">
        <ele>-13</ele>
        <time>2016-04-17T09:13:17Z</time>
      </trkpt>
      <trkpt lat="44.59903" lon="-0.2827">
        <ele>-13</ele>
        <time>2016-04-17T09:13:22Z</time>
      </trkpt>
      <trkpt lat="44.59904" lon="-0.28267">
        <ele>-13</ele>
        <time>2016-04-17T09:13:55Z</time>
      </trkpt>
      <trkpt lat="44.59907" lon="-0.28281">
        <ele>-12</ele>
        <time>2016-04-17T09:14:00Z</time>
      </trkpt>
      <trkpt lat="44.59907" lon="-0.28281">
        <ele>-12</ele>
        <time>2016-04-17T09:14:14Z</time>
      </trkpt>
      <trkpt lat="44.59918" lon="-0.2828">
        <ele>-10</ele>
        <time>2016-04-17T09:14:18Z</time>
      </trkpt>
      <trkpt lat="44.59918" lon="-0.2828">
        <ele>-10</ele>
        <time>2016-04-17T09:14:27Z</time>
      </trkpt>
      <trkpt lat="44.59925" lon="-0.28283">
        <ele>-10</ele>
        <time>2016-04-17T09:15:45Z</time>
      </trkpt>
      <trkpt lat="44.59936" lon="-0.28286">
        <ele>-9</ele>
        <time>2016-04-17T09:15:49Z</time>
      </trkpt>
      <trkpt lat="44.59936" lon="-0.28286">
        <ele>-9</ele>
        <time>2016-04-17T09:15:59Z</time>
      </trkpt>
      <trkpt lat="44.59948" lon="-0.28282">
        <ele>-9</ele>
        <time>2016-04-17T09:16:04Z</time>
      </trkpt>
      <trkpt lat="44.59956" lon="-0.28282">
        <ele>-9</ele>
        <time>2016-04-17T09:16:12Z</time>
      </trkpt>
      <trkpt lat="44.59957" lon="-0.28283">
        <ele>-9</ele>
        <time>2016-04-17T09:16:21Z</time>
      </trkpt>
      <trkpt lat="44.59969" lon="-0.28295">
        <ele>-9</ele>
        <time>2016-04-17T09:16:26Z</time>
      </trkpt>
      <trkpt lat="44.59969" lon="-0.283">
        <ele>-9</ele>
        <time>2016-04-17T09:16:39Z</time>
      </trkpt>
      <trkpt lat="44.59975" lon="-0.28315">
        <ele>-8</ele>
        <time>2016-04-17T09:16:44Z</time>
      </trkpt>
      <trkpt lat="44.59975" lon="-0.28315">
        <ele>-8</ele>
        <time>2016-04-17T09:16:54Z</time>
      </trkpt>
      <trkpt lat="44.59978" lon="-0.28331">
        <ele>-7</ele>
        <time>2016-04-17T09:16:58Z</time>
      </trkpt>
      <trkpt lat="44.59978" lon="-0.28331">
        <ele>-7</ele>
        <time>2016-04-17T09:17:12Z</time>
      </trkpt>
      <trkpt lat="44.5998" lon="-0.28347">
        <ele>-7</ele>
        <time>2016-04-17T09:17:17Z</time>
      </trkpt>
      <trkpt lat="44.5998" lon="-0.28347">
        <ele>-7</ele>
        <time>2016-04-17T09:18:25Z</time>
      </trkpt>
      <trkpt lat="44.59987" lon="-0.28356">
        <ele>-5</ele>
        <time>2016-04-17T09:18:30Z</time>
      </trkpt>
      <trkpt lat="44.59987" lon="-0.28356">
        <ele>-5</ele>
        <time>2016-04-17T09:18:41Z</time>
      </trkpt>
      <trkpt lat="44.59999" lon="-0.28363">
        <ele>-5</ele>
        <time>2016-04-17T09:18:45Z</time>
      </trkpt>
      <trkpt lat="44.60001" lon="-0.28365">
        <ele>-4</ele>
        <time>2016-04-17T09:18:57Z</time>
      </trkpt>
      <trkpt lat="44.6001" lon="-0.28379">
        <ele>-4</ele>
        <time>2016-04-17T09:19:02Z</time>
      </trkpt>
      <trkpt lat="44.6001" lon="-0.28379">
        <ele>-4</ele>
        <time>2016-04-17T09:19:13Z</time>
      </trkpt>
      <trkpt lat="44.60022" lon="-0.28387">
        <ele>-3</ele>
        <time>2016-04-17T09:19:18Z</time>
      </trkpt>
      <trkpt lat="44.60024" lon="-0.28398">
        <ele>-3</ele>
        <time>2016-04-17T09:19:25Z</time>
      </trkpt>
      <trkpt lat="44.60031" lon="-0.28403">
        <ele>-3</ele>
        <time>2016-04-17T09:19:32Z</time>
      </trkpt>
      <trkpt lat="44.60037" lon="-0.28413">
        <ele>-3</ele>
        <time>2016-04-17T09:19:39Z</time>
      </trkpt>
      <trkpt lat="44.60039" lon="-0.28415">
        <ele>-2</ele>
        <time>2016-04-17T09:19:58Z</time>
      </trkpt>
      <trkpt lat="44.60043" lon="-0.28429">
        <ele>86.5</ele>
        <time>2016-04-17T09:20:02Z</time>
      </trkpt>
      <trkpt lat="44.60043" lon="-0.28429">
        <ele>86.5</ele>
        <time>2016-04-17T09:20:12Z</time>
      </trkpt>
      <trkpt lat="44.60053" lon="-0.28427">
        <ele>87.7</ele>
        <time>2016-04-17T09:20:17Z</time>
      </trkpt>
      <trkpt lat="44.60053" lon="-0.28427">
        <ele>87.7</ele>
        <time>2016-04-17T09:20:29Z</time>
      </trkpt>
      <trkpt lat="44.60063" lon="-0.28421">
        <ele>1</ele>
        <time>2016-04-17T09:20:33Z</time>
      </trkpt>
      <trkpt lat="44.60063" lon="-0.28421">
        <ele>1</ele>
        <time>2016-04-17T09:20:43Z</time>
      </trkpt>
      <trkpt lat="44.60075" lon="-0.28422">
        <ele>2</ele>
        <time>2016-04-17T09:20:48Z</time>
      </trkpt>
      <trkpt lat="44.60075" lon="-0.28422">
        <ele>2</ele>
        <time>2016-04-17T09:20:59Z</time>
      </trkpt>
      <trkpt lat="44.60086" lon="-0.28422">
        <ele>2</ele>
        <time>2016-04-17T09:21:03Z</time>
      </trkpt>
      <trkpt lat="44.60086" lon="-0.28422">
        <ele>2</ele>
        <time>2016-04-17T09:21:16Z</time>
      </trkpt>
      <trkpt lat="44.60098" lon="-0.28427">
        <ele>3</ele>
        <time>2016-04-17T09:21:20Z</time>
      </trkpt>
      <trkpt lat="44.60098" lon="-0.28427">
        <ele>3</ele>
        <time>2016-04-17T09:21:32Z</time>
      </trkpt>
      <trkpt lat="44.60107" lon="-0.28434">
        <ele>3</ele>
        <time>2016-04-17T09:21:36Z</time>
      </trkpt>
      <trkpt lat="44.60107" lon="-0.28434">
        <ele>3</ele>
        <time>2016-04-17T09:21:42Z</time>
      </trkpt>
      <trkpt lat="44.60119" lon="-0.28433">
        <ele>4</ele>
        <time>2016-04-17T09:21:47Z</time>
      </trkpt>
      <trkpt lat="44.60119" lon="-0.28433">
        <ele>4</ele>
        <time>2016-04-17T09:22:01Z</time>
      </trkpt>
      <trkpt lat="44.60129" lon="-0.28431">
        <ele>5</ele>
        <time>2016-04-17T09:22:06Z</time>
      </trkpt>
      <trkpt lat="44.60129" lon="-0.28431">
        <ele>5</ele>
        <time>2016-04-17T09:22:22Z</time>
      </trkpt>
      <trkpt lat="44.6014" lon="-0.28424">
        <ele>5</ele>
        <time>2016-04-17T09:22:26Z</time>
      </trkpt>
      <trkpt lat="44.6014" lon="-0.28424">
        <ele>5</ele>
        <time>2016-04-17T09:22:40Z</time>
      </trkpt>
      <trkpt lat="44.6015" lon="-0.28418">
        <ele>5</ele>
        <time>2016-04-17T09:22:45Z</time>
      </trkpt>
      <trkpt lat="44.6015" lon="-0.28418">
        <ele>5</ele>
        <time>2016-04-17T09:23:01Z</time>
      </trkpt>
      <trkpt lat="44.6016" lon="-0.28409">
        <ele>6</ele>
        <time>2016-04-17T09:23:06Z</time>
      </trkpt>
      <trkpt lat="44.6016" lon="-0.28409">
        <ele>6</ele>
        <time>2016-04-17T09:23:17Z</time>
      </trkpt>
      <trkpt lat="44.60173" lon="-0.28406">
        <ele>7</ele>
        <time>2016-04-17T09:23:21Z</time>
      </trkpt>
      <trkpt lat="44.60173" lon="-0.28406">
        <ele>7</ele>
        <time>2016-04-17T09:23:28Z</time>
      </trkpt>
      <trkpt lat="44.60185" lon="-0.28404">
        <ele>7</ele>
        <time>2016-04-17T09:23:32Z</time>
      </trkpt>
      <trkpt lat="44.60185" lon="-0.28404">
        <ele>7</ele>
        <time>2016-04-17T09:23:53Z</time>
      </trkpt>
      <trkpt lat="44.60193" lon="-0.28398">
        <ele>7</ele>
        <time>2016-04-17T09:24:17Z</time>
      </trkpt>
      <trkpt lat="44.60203" lon="-0.28405">
        <ele>8</ele>
        <time>2016-04-17T09:24:21Z</time>
      </trkpt>
      <trkpt lat="44.60203" lon="-0.28405">
        <ele>8</ele>
        <time>2016-04-17T09:24:26Z</time>
      </trkpt>
      <trkpt lat="44.60214" lon="-0.28406">
        <ele>9</ele>
        <time>2016-04-17T09:24:30Z</time>
      </trkpt>
      <trkpt lat="44.60214" lon="-0.28406">
        <ele>9</ele>
        <time>2016-04-17T09:24:39Z</time>
      </trkpt>
      <trkpt lat="44.60235" lon="-0.28406">
        <ele>10</ele>
        <time>2016-04-17T09:24:44Z</time>
      </trkpt>
      <trkpt lat="44.60236" lon="-0.28406">
        <ele>10</ele>
        <time>2016-04-17T09:24:54Z</time>
      </trkpt>
      <trkpt lat="44.60252" lon="-0.2841">
        <ele>12</ele>
        <time>2016-04-17T09:24:59Z</time>
      </trkpt>
      <trkpt lat="44.60261" lon="-0.28411">
        <ele>14</ele>
        <time>2016-04-17T09:25:10Z</time>
      </trkpt>
      <trkpt lat="44.60268" lon="-0.28408">
        <ele>16</ele>
        <time>2016-04-17T09:25:17Z</time>
      </trkpt>
      <trkpt lat="44.60277" lon="-0.28405">
        <ele>18</ele>
        <time>2016-04-17T09:25:22Z</time>
      </trkpt>
      <trkpt lat="44.60285" lon="-0.28401">
        <ele>21</ele>
        <time>2016-04-17T09:25:31Z</time>
      </trkpt>
      <trkpt lat="44.60293" lon="-0.28395">
        <ele>24</ele>
        <time>2016-04-17T09:25:39Z</time>
      </trkpt>
      <trkpt lat="44.603" lon="-0.28389">
        <ele>27</ele>
        <time>2016-04-17T09:25:46Z</time>
      </trkpt>
      <trkpt lat="44.60307" lon="-0.28386">
        <ele>29</ele>
        <time>2016-04-17T09:25:51Z</time>
      </trkpt>
      <trkpt lat="44.60314" lon="-0.28381">
        <ele>32</ele>
        <time>2016-04-17T09:25:57Z</time>
      </trkpt>
      <trkpt lat="44.60323" lon="-0.28378">
        <ele>34</ele>
        <time>2016-04-17T09:26:02Z</time>
      </trkpt>
      <trkpt lat="44.60334" lon="-0.28376">
        <ele>37</ele>
        <time>2016-04-17T09:26:06Z</time>
      </trkpt>
      <trkpt lat="44.60342" lon="-0.28372">
        <ele>40</ele>
        <time>2016-04-17T09:26:12Z</time>
      </trkpt>
      <trkpt lat="44.6035" lon="-0.28367">
        <ele>43</ele>
        <time>2016-04-17T09:26:20Z</time>
      </trkpt>
      <trkpt lat="44.60357" lon="-0.28363">
        <ele>45</ele>
        <time>2016-04-17T09:26:27Z</time>
      </trkpt>
      <trkpt lat="44.60365" lon="-0.2836">
        <ele>48</ele>
        <time>2016-04-17T09:26:32Z</time>
      </trkpt>
      <trkpt lat="44.60374" lon="-0.28358">
        <ele>50</ele>
        <time>2016-04-17T09:26:39Z</time>
      </trkpt>
      <trkpt lat="44.60382" lon="-0.28358">
        <ele>52</ele>
        <time>2016-04-17T09:26:45Z</time>
      </trkpt>
      <trkpt lat="44.6039" lon="-0.28357">
        <ele>54</ele>
        <time>2016-04-17T09:26:51Z</time>
      </trkpt>
      <trkpt lat="44.60398" lon="-0.28353">
        <ele>56</ele>
        <time>2016-04-17T09:26:59Z</time>
      </trkpt>
      <trkpt lat="44.60405" lon="-0.28346">
        <ele>57</ele>
        <time>2016-04-17T09:27:08Z</time>
      </trkpt>
      <trkpt lat="44.60409" lon="-0.28343">
        <ele>58</ele>
        <time>2016-04-17T09:27:17Z</time>
      </trkpt>
      <trkpt lat="44.60416" lon="-0.28334">
        <ele>58</ele>
        <time>2016-04-17T09:27:22Z</time>
      </trkpt>
      <trkpt lat="44.60423" lon="-0.28327">
        <ele>58</ele>
        <time>2016-04-17T09:27:29Z</time>
      </trkpt>
      <trkpt lat="44.60429" lon="-0.28318">
        <ele>58</ele>
        <time>2016-04-17T09:27:39Z</time>
      </trkpt>
      <trkpt lat="44.60435" lon="-0.2831">
        <ele>59</ele>
        <time>2016-04-17T09:27:47Z</time>
      </trkpt>
      <trkpt lat="44.60442" lon="-0.28302">
        <ele>60</ele>
        <time>2016-04-17T09:27:55Z</time>
      </trkpt>
      <trkpt lat="44.60449" lon="-0.28295">
        <ele>61</ele>
        <time>2016-04-17T09:28:03Z</time>
      </trkpt>
      <trkpt lat="44.60456" lon="-0.28289">
        <ele>61</ele>
        <time>2016-04-17T09:28:09Z</time>
      </trkpt>
      <trkpt lat="44.60462" lon="-0.28283">
        <ele>61</ele>
        <time>2016-04-17T09:28:16Z</time>
      </trkpt>
      <trkpt lat="44.60468" lon="-0.28274">
        <ele>61</ele>
        <time>2016-04-17T09:28:24Z</time>
      </trkpt>
      <trkpt lat="44.60474" lon="-0.28265">
        <ele>61</ele>
        <time>2016-04-17T09:28:32Z</time>
      </trkpt>
      <trkpt lat="44.60481" lon="-0.28257">
        <ele>60</ele>
        <time>2016-04-17T09:28:40Z</time>
      </trkpt>
      <trkpt lat="44.60482" lon="-0.28254">
        <ele>60</ele>
        <time>2016-04-17T09:28:52Z</time>
      </trkpt>
      <trkpt lat="44.6049" lon="-0.28242">
        <ele>58</ele>
        <time>2016-04-17T09:28:56Z</time>
      </trkpt>
      <trkpt lat="44.60497" lon="-0.28236">
        <ele>57</ele>
        <time>2016-04-17T09:29:02Z</time>
      </trkpt>
      <trkpt lat="44.60503" lon="-0.28229">
        <ele>56</ele>
        <time>2016-04-17T09:29:10Z</time>
      </trkpt>
      <trkpt lat="44.60509" lon="-0.28222">
        <ele>55</ele>
        <time>2016-04-17T09:29:17Z</time>
      </trkpt>
      <trkpt lat="44.60515" lon="-0.28215">
        <ele>55</ele>
        <time>2016-04-17T09:29:23Z</time>
      </trkpt>
      <trkpt lat="44.60522" lon="-0.28207">
        <ele>55</ele>
        <time>2016-04-17T09:29:31Z</time>
      </trkpt>
      <trkpt lat="44.60528" lon="-0.282">
        <ele>55</ele>
        <time>2016-04-17T09:29:40Z</time>
      </trkpt>
      <trkpt lat="44.60535" lon="-0.28192">
        <ele>55</ele>
        <time>2016-04-17T09:29:48Z</time>
      </trkpt>
      <trkpt lat="44.60542" lon="-0.28186">
        <ele>56</ele>
        <time>2016-04-17T09:29:55Z</time>
      </trkpt>
      <trkpt lat="44.60546" lon="-0.2818">
        <ele>56</ele>
        <time>2016-04-17T09:30:12Z</time>
      </trkpt>
      <trkpt lat="44.60557" lon="-0.28166">
        <ele>57</ele>
        <time>2016-04-17T09:30:17Z</time>
      </trkpt>
      <trkpt lat="44.60563" lon="-0.28158">
        <ele>56</ele>
        <time>2016-04-17T09:30:25Z</time>
      </trkpt>
      <trkpt lat="44.60564" lon="-0.28157">
        <ele>55</ele>
        <time>2016-04-17T09:37:02Z</time>
      </trkpt>
      <trkpt lat="44.60552" lon="-0.28156">
        <ele>55</ele>
        <time>2016-04-17T09:37:06Z</time>
      </trkpt>
      <trkpt lat="44.60545" lon="-0.28148">
        <ele>54</ele>
        <time>2016-04-17T09:37:20Z</time>
      </trkpt>
      <trkpt lat="44.60538" lon="-0.28141">
        <ele>54</ele>
        <time>2016-04-17T09:37:24Z</time>
      </trkpt>
      <trkpt lat="44.60533" lon="-0.28131">
        <ele>53</ele>
        <time>2016-04-17T09:37:33Z</time>
      </trkpt>
      <trkpt lat="44.60527" lon="-0.28122">
        <ele>52</ele>
        <time>2016-04-17T09:37:40Z</time>
      </trkpt>
      <trkpt lat="44.60521" lon="-0.28114">
        <ele>52</ele>
        <time>2016-04-17T09:37:46Z</time>
      </trkpt>
      <trkpt lat="44.60515" lon="-0.28105">
        <ele>51</ele>
        <time>2016-04-17T09:37:53Z</time>
      </trkpt>
      <trkpt lat="44.6051" lon="-0.28095">
        <ele>51</ele>
        <time>2016-04-17T09:38:00Z</time>
      </trkpt>
      <trkpt lat="44.60505" lon="-0.28086">
        <ele>51</ele>
        <time>2016-04-17T09:38:07Z</time>
      </trkpt>
      <trkpt lat="44.60499" lon="-0.28078">
        <ele>50</ele>
        <time>2016-04-17T09:38:14Z</time>
      </trkpt>
      <trkpt lat="44.60493" lon="-0.2807">
        <ele>50</ele>
        <time>2016-04-17T09:38:20Z</time>
      </trkpt>
      <trkpt lat="44.60488" lon="-0.28061">
        <ele>49</ele>
        <time>2016-04-17T09:38:27Z</time>
      </trkpt>
      <trkpt lat="44.60483" lon="-0.28052">
        <ele>49</ele>
        <time>2016-04-17T09:38:33Z</time>
      </trkpt>
      <trkpt lat="44.60478" lon="-0.28042">
        <ele>49</ele>
        <time>2016-04-17T09:38:40Z</time>
      </trkpt>
      <trkpt lat="44.60473" lon="-0.28034">
        <ele>49</ele>
        <time>2016-04-17T09:38:45Z</time>
      </trkpt>
      <trkpt lat="44.6047" lon="-0.28021">
        <ele>49</ele>
        <time>2016-04-17T09:38:53Z</time>
      </trkpt>
      <trkpt lat="44.60468" lon="-0.28011">
        <ele>48</ele>
        <time>2016-04-17T09:39:10Z</time>
      </trkpt>
      <trkpt lat="44.60461" lon="-0.27992">
        <ele>48</ele>
        <time>2016-04-17T09:39:15Z</time>
      </trkpt>
      <trkpt lat="44.60455" lon="-0.27982">
        <ele>48</ele>
        <time>2016-04-17T09:39:22Z</time>
      </trkpt>
      <trkpt lat="44.60453" lon="-0.27978">
        <ele>48</ele>
        <time>2016-04-17T09:39:34Z</time>
      </trkpt>
      <trkpt lat="44.60445" lon="-0.27966">
        <ele>49</ele>
        <time>2016-04-17T09:39:38Z</time>
      </trkpt>
      <trkpt lat="44.60441" lon="-0.27961">
        <ele>49</ele>
        <time>2016-04-17T09:39:51Z</time>
      </trkpt>
      <trkpt lat="44.60429" lon="-0.27951">
        <ele>49</ele>
        <time>2016-04-17T09:39:56Z</time>
      </trkpt>
      <trkpt lat="44.60429" lon="-0.27951">
        <ele>49</ele>
        <time>2016-04-17T09:40:02Z</time>
      </trkpt>
      <trkpt lat="44.6042" lon="-0.2794">
        <ele>48</ele>
        <time>2016-04-17T09:40:06Z</time>
      </trkpt>
      <trkpt lat="44.6042" lon="-0.2794">
        <ele>48</ele>
        <time>2016-04-17T09:40:12Z</time>
      </trkpt>
      <trkpt lat="44.60415" lon="-0.27922">
        <ele>48</ele>
        <time>2016-04-17T09:40:16Z</time>
      </trkpt>
      <trkpt lat="44.60415" lon="-0.27922">
        <ele>48</ele>
        <time>2016-04-17T09:40:22Z</time>
      </trkpt>
      <trkpt lat="44.60409" lon="-0.27905">
        <ele>48</ele>
        <time>2016-04-17T09:40:26Z</time>
      </trkpt>
      <trkpt lat="44.60409" lon="-0.27905">
        <ele>48</ele>
        <time>2016-04-17T09:42:15Z</time>
      </trkpt>
      <trkpt lat="44.60404" lon="-0.27894">
        <ele>49</ele>
        <time>2016-04-17T09:42:19Z</time>
      </trkpt>
      <trkpt lat="44.60404" lon="-0.27894">
        <ele>49</ele>
        <time>2016-04-17T09:42:54Z</time>
      </trkpt>
      <trkpt lat="44.60392" lon="-0.27881">
        <ele>49</ele>
        <time>2016-04-17T09:42:59Z</time>
      </trkpt>
      <trkpt lat="44.60388" lon="-0.27871">
        <ele>49</ele>
        <time>2016-04-17T09:43:05Z</time>
      </trkpt>
      <trkpt lat="44.60382" lon="-0.27862">
        <ele>49</ele>
        <time>2016-04-17T09:43:12Z</time>
      </trkpt>
      <trkpt lat="44.60375" lon="-0.27856">
        <ele>49</ele>
        <time>2016-04-17T09:43:18Z</time>
      </trkpt>
      <trkpt lat="44.60369" lon="-0.27847">
        <ele>49</ele>
        <time>2016-04-17T09:43:27Z</time>
      </trkpt>
      <trkpt lat="44.60363" lon="-0.27841">
        <ele>48</ele>
        <time>2016-04-17T09:43:33Z</time>
      </trkpt>
      <trkpt lat="44.60357" lon="-0.27834">
        <ele>48</ele>
        <time>2016-04-17T09:43:39Z</time>
      </trkpt>
      <trkpt lat="44.60351" lon="-0.27826">
        <ele>48</ele>
        <time>2016-04-17T09:43:45Z</time>
      </trkpt>
      <trkpt lat="44.60346" lon="-0.27819">
        <ele>48</ele>
        <time>2016-04-17T09:44:02Z</time>
      </trkpt>
      <trkpt lat="44.60336" lon="-0.27809">
        <ele>47</ele>
        <time>2016-04-17T09:44:06Z</time>
      </trkpt>
      <trkpt lat="44.60336" lon="-0.27809">
        <ele>47</ele>
        <time>2016-04-17T09:44:15Z</time>
      </trkpt>
      <trkpt lat="44.60322" lon="-0.27803">
        <ele>47</ele>
        <time>2016-04-17T09:44:20Z</time>
      </trkpt>
      <trkpt lat="44.60314" lon="-0.27799">
        <ele>48</ele>
        <time>2016-04-17T09:44:26Z</time>
      </trkpt>
      <trkpt lat="44.60306" lon="-0.27798">
        <ele>49</ele>
        <time>2016-04-17T09:44:32Z</time>
      </trkpt>
      <trkpt lat="44.60298" lon="-0.27802">
        <ele>49</ele>
        <time>2016-04-17T09:44:38Z</time>
      </trkpt>
      <trkpt lat="44.60292" lon="-0.2781">
        <ele>50</ele>
        <time>2016-04-17T09:44:46Z</time>
      </trkpt>
      <trkpt lat="44.60285" lon="-0.27816">
        <ele>51</ele>
        <time>2016-04-17T09:44:52Z</time>
      </trkpt>
      <trkpt lat="44.60278" lon="-0.27823">
        <ele>52</ele>
        <time>2016-04-17T09:44:58Z</time>
      </trkpt>
      <trkpt lat="44.60269" lon="-0.27823">
        <ele>53</ele>
        <time>2016-04-17T09:45:06Z</time>
      </trkpt>
      <trkpt lat="44.6026" lon="-0.27819">
        <ele>54</ele>
        <time>2016-04-17T09:45:19Z</time>
      </trkpt>
      <trkpt lat="44.60256" lon="-0.27815">
        <ele>54</ele>
        <time>2016-04-17T09:45:27Z</time>
      </trkpt>
      <trkpt lat="44.60247" lon="-0.27809">
        <ele>54</ele>
        <time>2016-04-17T09:45:32Z</time>
      </trkpt>
      <trkpt lat="44.60241" lon="-0.27803">
        <ele>54</ele>
        <time>2016-04-17T09:45:41Z</time>
      </trkpt>
      <trkpt lat="44.60238" lon="-0.27798">
        <ele>54</ele>
        <time>2016-04-17T09:45:55Z</time>
      </trkpt>
      <trkpt lat="44.60228" lon="-0.27792">
        <ele>53</ele>
        <time>2016-04-17T09:46:00Z</time>
      </trkpt>
      <trkpt lat="44.60228" lon="-0.27792">
        <ele>53</ele>
        <time>2016-04-17T09:46:07Z</time>
      </trkpt>
      <trkpt lat="44.60216" lon="-0.27782">
        <ele>54</ele>
        <time>2016-04-17T09:46:12Z</time>
      </trkpt>
      <trkpt lat="44.60209" lon="-0.27775">
        <ele>54</ele>
        <time>2016-04-17T09:46:17Z</time>
      </trkpt>
      <trkpt lat="44.60202" lon="-0.27767">
        <ele>54</ele>
        <time>2016-04-17T09:46:24Z</time>
      </trkpt>
      <trkpt lat="44.60196" lon="-0.27759">
        <ele>54</ele>
        <time>2016-04-17T09:46:31Z</time>
      </trkpt>
      <trkpt lat="44.60189" lon="-0.27752">
        <ele>54</ele>
        <time>2016-04-17T09:46:39Z</time>
      </trkpt>
      <trkpt lat="44.60184" lon="-0.27748">
        <ele>54</ele>
        <time>2016-04-17T09:46:44Z</time>
      </trkpt>
      <trkpt lat="44.6018" lon="-0.2774">
        <ele>53</ele>
        <time>2016-04-17T09:47:05Z</time>
      </trkpt>
      <trkpt lat="44.60169" lon="-0.2773">
        <ele>53</ele>
        <time>2016-04-17T09:47:10Z</time>
      </trkpt>
      <trkpt lat="44.60162" lon="-0.27724">
        <ele>53</ele>
        <time>2016-04-17T09:47:19Z</time>
      </trkpt>
      <trkpt lat="44.60162" lon="-0.27722">
        <ele>53</ele>
        <time>2016-04-17T09:47:27Z</time>
      </trkpt>
      <trkpt lat="44.60154" lon="-0.27711">
        <ele>52</ele>
        <time>2016-04-17T09:47:31Z</time>
      </trkpt>
      <trkpt lat="44.60147" lon="-0.27704">
        <ele>52</ele>
        <time>2016-04-17T09:47:38Z</time>
      </trkpt>
      <trkpt lat="44.60141" lon="-0.27696">
        <ele>51</ele>
        <time>2016-04-17T09:47:45Z</time>
      </trkpt>
      <trkpt lat="44.60135" lon="-0.27689">
        <ele>51</ele>
        <time>2016-04-17T09:47:51Z</time>
      </trkpt>
      <trkpt lat="44.60128" lon="-0.27681">
        <ele>51</ele>
        <time>2016-04-17T09:47:58Z</time>
      </trkpt>
      <trkpt lat="44.60121" lon="-0.27675">
        <ele>50</ele>
        <time>2016-04-17T09:48:05Z</time>
      </trkpt>
      <trkpt lat="44.60114" lon="-0.27669">
        <ele>50</ele>
        <time>2016-04-17T09:48:10Z</time>
      </trkpt>
      <trkpt lat="44.60107" lon="-0.27662">
        <ele>50</ele>
        <time>2016-04-17T09:48:16Z</time>
      </trkpt>
      <trkpt lat="44.60099" lon="-0.27657">
        <ele>50</ele>
        <time>2016-04-17T09:48:23Z</time>
      </trkpt>
      <trkpt lat="44.60092" lon="-0.27652">
        <ele>50</ele>
        <time>2016-04-17T09:48:28Z</time>
      </trkpt>
      <trkpt lat="44.60085" lon="-0.27646">
        <ele>50</ele>
        <time>2016-04-17T09:48:35Z</time>
      </trkpt>
      <trkpt lat="44.60078" lon="-0.27638">
        <ele>49</ele>
        <time>2016-04-17T09:48:44Z</time>
      </trkpt>
      <trkpt lat="44.60072" lon="-0.27633">
        <ele>49</ele>
        <time>2016-04-17T09:48:50Z</time>
      </trkpt>
      <trkpt lat="44.60064" lon="-0.27627">
        <ele>49</ele>
        <time>2016-04-17T09:48:55Z</time>
      </trkpt>
      <trkpt lat="44.60056" lon="-0.27631">
        <ele>47</ele>
        <time>2016-04-17T09:49:12Z</time>
      </trkpt>
      <trkpt lat="44.60049" lon="-0.27638">
        <ele>44</ele>
        <time>2016-04-17T09:49:24Z</time>
      </trkpt>
      <trkpt lat="44.60041" lon="-0.27636">
        <ele>41</ele>
        <time>2016-04-17T09:49:32Z</time>
      </trkpt>
      <trkpt lat="44.60035" lon="-0.27633">
        <ele>39</ele>
        <time>2016-04-17T09:49:41Z</time>
      </trkpt>
      <trkpt lat="44.6002" lon="-0.27613">
        <ele>37</ele>
        <time>2016-04-17T09:49:46Z</time>
      </trkpt>
      <trkpt lat="44.60017" lon="-0.27606">
        <ele>36</ele>
        <time>2016-04-17T09:49:51Z</time>
      </trkpt>
      <trkpt lat="44.60011" lon="-0.27604">
        <ele>34</ele>
        <time>2016-04-17T09:50:02Z</time>
      </trkpt>
      <trkpt lat="44.60003" lon="-0.276">
        <ele>32</ele>
        <time>2016-04-17T09:50:09Z</time>
      </trkpt>
      <trkpt lat="44.5999" lon="-0.27584">
        <ele>31</ele>
        <time>2016-04-17T09:50:13Z</time>
      </trkpt>
      <trkpt lat="44.59983" lon="-0.27578">
        <ele>31</ele>
        <time>2016-04-17T09:50:18Z</time>
      </trkpt>
      <trkpt lat="44.59975" lon="-0.27573">
        <ele>30</ele>
        <time>2016-04-17T09:50:24Z</time>
      </trkpt>
      <trkpt lat="44.59974" lon="-0.27572">
        <ele>30</ele>
        <time>2016-04-17T09:50:31Z</time>
      </trkpt>
      <trkpt lat="44.59964" lon="-0.27558">
        <ele>29</ele>
        <time>2016-04-17T09:50:36Z</time>
      </trkpt>
      <trkpt lat="44.59964" lon="-0.27558">
        <ele>29</ele>
        <time>2016-04-17T09:50:44Z</time>
      </trkpt>
      <trkpt lat="44.59952" lon="-0.27552">
        <ele>29</ele>
        <time>2016-04-17T09:50:49Z</time>
      </trkpt>
      <trkpt lat="44.59947" lon="-0.2755">
        <ele>29</ele>
        <time>2016-04-17T09:51:01Z</time>
      </trkpt>
      <trkpt lat="44.59935" lon="-0.27534">
        <ele>28</ele>
        <time>2016-04-17T09:51:05Z</time>
      </trkpt>
      <trkpt lat="44.59928" lon="-0.27527">
        <ele>28</ele>
        <time>2016-04-17T09:51:11Z</time>
      </trkpt>
      <trkpt lat="44.59923" lon="-0.2752">
        <ele>27</ele>
        <time>2016-04-17T09:51:20Z</time>
      </trkpt>
      <trkpt lat="44.59926" lon="-0.27496">
        <ele>29</ele>
        <time>2016-04-17T09:51:24Z</time>
      </trkpt>
      <trkpt lat="44.59934" lon="-0.27499">
        <ele>28</ele>
        <time>2016-04-17T09:52:03Z</time>
      </trkpt>
      <trkpt lat="44.59944" lon="-0.27498">
        <ele>28</ele>
        <time>2016-04-17T09:52:08Z</time>
      </trkpt>
      <trkpt lat="44.59944" lon="-0.27498">
        <ele>28</ele>
        <time>2016-04-17T09:52:18Z</time>
      </trkpt>
      <trkpt lat="44.59953" lon="-0.27509">
        <ele>27</ele>
        <time>2016-04-17T09:52:22Z</time>
      </trkpt>
      <trkpt lat="44.59953" lon="-0.27509">
        <ele>27</ele>
        <time>2016-04-17T09:52:28Z</time>
      </trkpt>
      <trkpt lat="44.59957" lon="-0.27525">
        <ele>27</ele>
        <time>2016-04-17T09:52:33Z</time>
      </trkpt>
      <trkpt lat="44.59957" lon="-0.27525">
        <ele>27</ele>
        <time>2016-04-17T09:52:43Z</time>
      </trkpt>
      <trkpt lat="44.59968" lon="-0.27531">
        <ele>27</ele>
        <time>2016-04-17T09:52:48Z</time>
      </trkpt>
      <trkpt lat="44.59975" lon="-0.27537">
        <ele>27</ele>
        <time>2016-04-17T09:52:54Z</time>
      </trkpt>
      <trkpt lat="44.59978" lon="-0.27537">
        <ele>27</ele>
        <time>2016-04-17T09:53:03Z</time>
      </trkpt>
      <trkpt lat="44.59987" lon="-0.27543">
        <ele>27</ele>
        <time>2016-04-17T09:53:07Z</time>
      </trkpt>
      <trkpt lat="44.59995" lon="-0.27547">
        <ele>26</ele>
        <time>2016-04-17T09:53:18Z</time>
      </trkpt>
      <trkpt lat="44.60001" lon="-0.27556">
        <ele>25</ele>
        <time>2016-04-17T09:53:28Z</time>
      </trkpt>
      <trkpt lat="44.60003" lon="-0.27566">
        <ele>24</ele>
        <time>2016-04-17T09:53:49Z</time>
      </trkpt>
      <trkpt lat="44.60014" lon="-0.27579">
        <ele>26</ele>
        <time>2016-04-17T09:53:53Z</time>
      </trkpt>
      <trkpt lat="44.60021" lon="-0.27587">
        <ele>26</ele>
        <time>2016-04-17T09:54:00Z</time>
      </trkpt>
      <trkpt lat="44.60027" lon="-0.27594">
        <ele>26</ele>
        <time>2016-04-17T09:54:05Z</time>
      </trkpt>
      <trkpt lat="44.60034" lon="-0.276">
        <ele>26</ele>
        <time>2016-04-17T09:54:10Z</time>
      </trkpt>
      <trkpt lat="44.60036" lon="-0.27603">
        <ele>26</ele>
        <time>2016-04-17T09:54:17Z</time>
      </trkpt>
      <trkpt lat="44.60045" lon="-0.27605">
        <ele>29</ele>
        <time>2016-04-17T09:54:27Z</time>
      </trkpt>
      <trkpt lat="44.6005" lon="-0.27613">
        <ele>30</ele>
        <time>2016-04-17T09:54:32Z</time>
      </trkpt>
      <trkpt lat="44.60057" lon="-0.27621">
        <ele>30</ele>
        <time>2016-04-17T09:54:38Z</time>
      </trkpt>
      <trkpt lat="44.60062" lon="-0.27629">
        <ele>30</ele>
        <time>2016-04-17T09:54:45Z</time>
      </trkpt>
      <trkpt lat="44.60065" lon="-0.27634">
        <ele>31</ele>
        <time>2016-04-17T09:54:58Z</time>
      </trkpt>
      <trkpt lat="44.60075" lon="-0.27643">
        <ele>32</ele>
        <time>2016-04-17T09:55:03Z</time>
      </trkpt>
      <trkpt lat="44.60082" lon="-0.27647">
        <ele>32</ele>
        <time>2016-04-17T09:55:07Z</time>
      </trkpt>
      <trkpt lat="44.60089" lon="-0.27652">
        <ele>32</ele>
        <time>2016-04-17T09:55:13Z</time>
      </trkpt>
      <trkpt lat="44.60097" lon="-0.27656">
        <ele>33</ele>
        <time>2016-04-17T09:55:19Z</time>
      </trkpt>
      <trkpt lat="44.60104" lon="-0.2766">
        <ele>34</ele>
        <time>2016-04-17T09:55:26Z</time>
      </trkpt>
      <trkpt lat="44.60112" lon="-0.27665">
        <ele>34</ele>
        <time>2016-04-17T09:55:32Z</time>
      </trkpt>
      <trkpt lat="44.6012" lon="-0.27668">
        <ele>36</ele>
        <time>2016-04-17T09:55:37Z</time>
      </trkpt>
      <trkpt lat="44.60124" lon="-0.27677">
        <ele>37</ele>
        <time>2016-04-17T09:55:46Z</time>
      </trkpt>
      <trkpt lat="44.6013" lon="-0.27685">
        <ele>38</ele>
        <time>2016-04-17T09:55:56Z</time>
      </trkpt>
      <trkpt lat="44.60137" lon="-0.27693">
        <ele>40</ele>
        <time>2016-04-17T09:56:03Z</time>
      </trkpt>
      <trkpt lat="44.60143" lon="-0.27699">
        <ele>41</ele>
        <time>2016-04-17T09:56:12Z</time>
      </trkpt>
      <trkpt lat="44.60152" lon="-0.27702">
        <ele>41</ele>
        <time>2016-04-17T09:56:18Z</time>
      </trkpt>
      <trkpt lat="44.60158" lon="-0.27703">
        <ele>42</ele>
        <time>2016-04-17T09:56:25Z</time>
      </trkpt>
      <trkpt lat="44.60166" lon="-0.27708">
        <ele>42</ele>
        <time>2016-04-17T09:56:30Z</time>
      </trkpt>
      <trkpt lat="44.60173" lon="-0.27714">
        <ele>43</ele>
        <time>2016-04-17T09:56:37Z</time>
      </trkpt>
      <trkpt lat="44.6018" lon="-0.27721">
        <ele>44</ele>
        <time>2016-04-17T09:56:45Z</time>
      </trkpt>
      <trkpt lat="44.60182" lon="-0.27725">
        <ele>45</ele>
        <time>2016-04-17T09:56:59Z</time>
      </trkpt>
      <trkpt lat="44.60178" lon="-0.2774">
        <ele>47</ele>
        <time>2016-04-17T09:57:04Z</time>
      </trkpt>
      <trkpt lat="44.60176" lon="-0.27746">
        <ele>48</ele>
        <time>2016-04-17T09:57:16Z</time>
      </trkpt>
      <trkpt lat="44.60168" lon="-0.27762">
        <ele>51</ele>
        <time>2016-04-17T09:57:20Z</time>
      </trkpt>
      <trkpt lat="44.60161" lon="-0.27767">
        <ele>52</ele>
        <time>2016-04-17T09:57:26Z</time>
      </trkpt>
      <trkpt lat="44.60154" lon="-0.27773">
        <ele>53</ele>
        <time>2016-04-17T09:57:31Z</time>
      </trkpt>
      <trkpt lat="44.60148" lon="-0.27781">
        <ele>53</ele>
        <time>2016-04-17T09:57:38Z</time>
      </trkpt>
      <trkpt lat="44.60143" lon="-0.27791">
        <ele>54</ele>
        <time>2016-04-17T09:57:48Z</time>
      </trkpt>
      <trkpt lat="44.60137" lon="-0.27798">
        <ele>55</ele>
        <time>2016-04-17T09:57:57Z</time>
      </trkpt>
      <trkpt lat="44.6013" lon="-0.27809">
        <ele>56</ele>
        <time>2016-04-17T09:58:02Z</time>
      </trkpt>
      <trkpt lat="44.60125" lon="-0.27818">
        <ele>56</ele>
        <time>2016-04-17T09:58:09Z</time>
      </trkpt>
      <trkpt lat="44.60123" lon="-0.27823">
        <ele>57</ele>
        <time>2016-04-17T09:58:17Z</time>
      </trkpt>
      <trkpt lat="44.60115" lon="-0.27841">
        <ele>58</ele>
        <time>2016-04-17T09:58:22Z</time>
      </trkpt>
      <trkpt lat="44.60108" lon="-0.27849">
        <ele>60</ele>
        <time>2016-04-17T09:58:29Z</time>
      </trkpt>
      <trkpt lat="44.60102" lon="-0.27857">
        <ele>60</ele>
        <time>2016-04-17T09:58:34Z</time>
      </trkpt>
      <trkpt lat="44.60095" lon="-0.27864">
        <ele>61</ele>
        <time>2016-04-17T09:58:39Z</time>
      </trkpt>
      <trkpt lat="44.60088" lon="-0.2787">
        <ele>62</ele>
        <time>2016-04-17T09:58:48Z</time>
      </trkpt>
      <trkpt lat="44.60083" lon="-0.27871">
        <ele>63</ele>
        <time>2016-04-17T09:59:06Z</time>
      </trkpt>
      <trkpt lat="44.60071" lon="-0.27874">
        <ele>64</ele>
        <time>2016-04-17T09:59:11Z</time>
      </trkpt>
      <trkpt lat="44.60071" lon="-0.27874">
        <ele>64</ele>
        <time>2016-04-17T09:59:21Z</time>
      </trkpt>
      <trkpt lat="44.60057" lon="-0.27872">
        <ele>64</ele>
        <time>2016-04-17T09:59:26Z</time>
      </trkpt>
      <trkpt lat="44.60057" lon="-0.27872">
        <ele>64</ele>
        <time>2016-04-17T09:59:37Z</time>
      </trkpt>
      <trkpt lat="44.60046" lon="-0.27865">
        <ele>64</ele>
        <time>2016-04-17T09:59:42Z</time>
      </trkpt>
      <trkpt lat="44.60046" lon="-0.27865">
        <ele>64</ele>
        <time>2016-04-17T09:59:48Z</time>
      </trkpt>
      <trkpt lat="44.60034" lon="-0.27857">
        <ele>65</ele>
        <time>2016-04-17T09:59:52Z</time>
      </trkpt>
      <trkpt lat="44.60034" lon="-0.27857">
        <ele>65</ele>
        <time>2016-04-17T09:59:59Z</time>
      </trkpt>
      <trkpt lat="44.60022" lon="-0.27859">
        <ele>64</ele>
        <time>2016-04-17T10:00:04Z</time>
      </trkpt>
      <trkpt lat="44.60022" lon="-0.27859">
        <ele>64</ele>
        <time>2016-04-17T10:00:10Z</time>
      </trkpt>
      <trkpt lat="44.60012" lon="-0.27873">
        <ele>64</ele>
        <time>2016-04-17T10:00:14Z</time>
      </trkpt>
      <trkpt lat="44.60012" lon="-0.27874">
        <ele>64</ele>
        <time>2016-04-17T10:00:23Z</time>
      </trkpt>
      <trkpt lat="44.60005" lon="-0.27885">
        <ele>65</ele>
        <time>2016-04-17T10:00:28Z</time>
      </trkpt>
      <trkpt lat="44.59997" lon="-0.27891">
        <ele>65</ele>
        <time>2016-04-17T10:00:35Z</time>
      </trkpt>
      <trkpt lat="44.59992" lon="-0.279">
        <ele>66</ele>
        <time>2016-04-17T10:00:41Z</time>
      </trkpt>
      <trkpt lat="44.59986" lon="-0.27908">
        <ele>66</ele>
        <time>2016-04-17T10:00:47Z</time>
      </trkpt>
      <trkpt lat="44.59982" lon="-0.27918">
        <ele>67</ele>
        <time>2016-04-17T10:00:54Z</time>
      </trkpt>
      <trkpt lat="44.59976" lon="-0.27926">
        <ele>68</ele>
        <time>2016-04-17T10:01:00Z</time>
      </trkpt>
      <trkpt lat="44.59969" lon="-0.27934">
        <ele>70</ele>
        <time>2016-04-17T10:01:09Z</time>
      </trkpt>
      <trkpt lat="44.59964" lon="-0.27943">
        <ele>70</ele>
        <time>2016-04-17T10:01:20Z</time>
      </trkpt>
      <trkpt lat="44.5996" lon="-0.27944">
        <ele>71</ele>
        <time>2016-04-17T10:01:36Z</time>
      </trkpt>
      <trkpt lat="44.59948" lon="-0.27937">
        <ele>72</ele>
        <time>2016-04-17T10:01:40Z</time>
      </trkpt>
      <trkpt lat="44.59943" lon="-0.27927">
        <ele>71</ele>
        <time>2016-04-17T10:01:50Z</time>
      </trkpt>
      <trkpt lat="44.59942" lon="-0.27926">
        <ele>71</ele>
        <time>2016-04-17T10:02:02Z</time>
      </trkpt>
      <trkpt lat="44.59932" lon="-0.27911">
        <ele>69</ele>
        <time>2016-04-17T10:02:07Z</time>
      </trkpt>
      <trkpt lat="44.59931" lon="-0.27912">
        <ele>69</ele>
        <time>2016-04-17T10:02:41Z</time>
      </trkpt>
      <trkpt lat="44.59924" lon="-0.27902">
        <ele>66</ele>
        <time>2016-04-17T10:02:46Z</time>
      </trkpt>
      <trkpt lat="44.59917" lon="-0.27905">
        <ele>66</ele>
        <time>2016-04-17T10:02:57Z</time>
      </trkpt>
      <trkpt lat="44.59907" lon="-0.27914">
        <ele>65</ele>
        <time>2016-04-17T10:03:02Z</time>
      </trkpt>
      <trkpt lat="44.59901" lon="-0.2792">
        <ele>64</ele>
        <time>2016-04-17T10:03:08Z</time>
      </trkpt>
      <trkpt lat="44.59896" lon="-0.27926">
        <ele>63</ele>
        <time>2016-04-17T10:03:21Z</time>
      </trkpt>
      <trkpt lat="44.5989" lon="-0.27932">
        <ele>63</ele>
        <time>2016-04-17T10:03:28Z</time>
      </trkpt>
      <trkpt lat="44.59882" lon="-0.27937">
        <ele>61</ele>
        <time>2016-04-17T10:03:33Z</time>
      </trkpt>
      <trkpt lat="44.59881" lon="-0.27949">
        <ele>58</ele>
        <time>2016-04-17T10:03:44Z</time>
      </trkpt>
      <trkpt lat="44.59878" lon="-0.2796">
        <ele>57</ele>
        <time>2016-04-17T10:03:54Z</time>
      </trkpt>
      <trkpt lat="44.59875" lon="-0.27965">
        <ele>57</ele>
        <time>2016-04-17T10:04:09Z</time>
      </trkpt>
      <trkpt lat="44.5987" lon="-0.27976">
        <ele>59</ele>
        <time>2016-04-17T10:04:13Z</time>
      </trkpt>
      <trkpt lat="44.59864" lon="-0.27986">
        <ele>59</ele>
        <time>2016-04-17T10:04:21Z</time>
      </trkpt>
      <trkpt lat="44.5986" lon="-0.27996">
        <ele>59</ele>
        <time>2016-04-17T10:04:28Z</time>
      </trkpt>
      <trkpt lat="44.59854" lon="-0.28004">
        <ele>59</ele>
        <time>2016-04-17T10:04:35Z</time>
      </trkpt>
      <trkpt lat="44.59847" lon="-0.2801">
        <ele>60</ele>
        <time>2016-04-17T10:04:42Z</time>
      </trkpt>
      <trkpt lat="44.59839" lon="-0.28016">
        <ele>60</ele>
        <time>2016-04-17T10:04:50Z</time>
      </trkpt>
      <trkpt lat="44.59833" lon="-0.28024">
        <ele>61</ele>
        <time>2016-04-17T10:04:58Z</time>
      </trkpt>
      <trkpt lat="44.59827" lon="-0.28033">
        <ele>62</ele>
        <time>2016-04-17T10:05:07Z</time>
      </trkpt>
      <trkpt lat="44.59822" lon="-0.28042">
        <ele>62</ele>
        <time>2016-04-17T10:05:18Z</time>
      </trkpt>
      <trkpt lat="44.59814" lon="-0.28048">
        <ele>62</ele>
        <time>2016-04-17T10:05:27Z</time>
      </trkpt>
      <trkpt lat="44.59808" lon="-0.28055">
        <ele>62</ele>
        <time>2016-04-17T10:05:37Z</time>
      </trkpt>
      <trkpt lat="44.59803" lon="-0.28058">
        <ele>62</ele>
        <time>2016-04-17T10:05:43Z</time>
      </trkpt>
      <trkpt lat="44.59795" lon="-0.28062">
        <ele>63</ele>
        <time>2016-04-17T10:05:48Z</time>
      </trkpt>
      <trkpt lat="44.59789" lon="-0.28069">
        <ele>63</ele>
        <time>2016-04-17T10:05:56Z</time>
      </trkpt>
      <trkpt lat="44.59781" lon="-0.28075">
        <ele>63</ele>
        <time>2016-04-17T10:06:03Z</time>
      </trkpt>
      <trkpt lat="44.59774" lon="-0.28081">
        <ele>63</ele>
        <time>2016-04-17T10:06:11Z</time>
      </trkpt>
      <trkpt lat="44.59768" lon="-0.28089">
        <ele>64</ele>
        <time>2016-04-17T10:06:20Z</time>
      </trkpt>
      <trkpt lat="44.59761" lon="-0.28096">
        <ele>64</ele>
        <time>2016-04-17T10:06:27Z</time>
      </trkpt>
      <trkpt lat="44.59759" lon="-0.28096">
        <ele>64</ele>
        <time>2016-04-17T10:06:50Z</time>
      </trkpt>
      <trkpt lat="44.59749" lon="-0.28106">
        <ele>61</ele>
        <time>2016-04-17T10:06:54Z</time>
      </trkpt>
      <trkpt lat="44.59746" lon="-0.28108">
        <ele>61</ele>
        <time>2016-04-17T10:07:20Z</time>
      </trkpt>
      <trkpt lat="44.59736" lon="-0.28117">
        <ele>57</ele>
        <time>2016-04-17T10:07:24Z</time>
      </trkpt>
      <trkpt lat="44.59736" lon="-0.28117">
        <ele>57</ele>
        <time>2016-04-17T10:07:35Z</time>
      </trkpt>
      <trkpt lat="44.59727" lon="-0.28122">
        <ele>56</ele>
        <time>2016-04-17T10:07:40Z</time>
      </trkpt>
      <trkpt lat="44.59727" lon="-0.28122">
        <ele>56</ele>
        <time>2016-04-17T10:07:51Z</time>
      </trkpt>
      <trkpt lat="44.59718" lon="-0.28134">
        <ele>56</ele>
        <time>2016-04-17T10:07:56Z</time>
      </trkpt>
      <trkpt lat="44.59712" lon="-0.28141">
        <ele>55</ele>
        <time>2016-04-17T10:08:02Z</time>
      </trkpt>
      <trkpt lat="44.59708" lon="-0.28147">
        <ele>55</ele>
        <time>2016-04-17T10:08:14Z</time>
      </trkpt>
      <trkpt lat="44.59699" lon="-0.28156">
        <ele>55</ele>
        <time>2016-04-17T10:08:19Z</time>
      </trkpt>
      <trkpt lat="44.59699" lon="-0.28156">
        <ele>55</ele>
        <time>2016-04-17T10:08:30Z</time>
      </trkpt>
      <trkpt lat="44.59688" lon="-0.28163">
        <ele>55</ele>
        <time>2016-04-17T10:08:34Z</time>
      </trkpt>
      <trkpt lat="44.59681" lon="-0.28167">
        <ele>56</ele>
        <time>2016-04-17T10:08:59Z</time>
      </trkpt>
      <trkpt lat="44.59668" lon="-0.28174">
        <ele>57</ele>
        <time>2016-04-17T10:09:04Z</time>
      </trkpt>
      <trkpt lat="44.59661" lon="-0.28175">
        <ele>57</ele>
        <time>2016-04-17T10:09:24Z</time>
      </trkpt>
      <trkpt lat="44.59649" lon="-0.28174">
        <ele>57</ele>
        <time>2016-04-17T10:09:28Z</time>
      </trkpt>
      <trkpt lat="44.59651" lon="-0.28186">
        <ele>48</ele>
        <time>2016-04-17T10:09:42Z</time>
      </trkpt>
      <trkpt lat="44.59648" lon="-0.28197">
        <ele>45</ele>
        <time>2016-04-17T10:09:50Z</time>
      </trkpt>
      <trkpt lat="44.59642" lon="-0.28206">
        <ele>43</ele>
        <time>2016-04-17T10:09:57Z</time>
      </trkpt>
      <trkpt lat="44.59638" lon="-0.28215">
        <ele>42</ele>
        <time>2016-04-17T10:10:01Z</time>
      </trkpt>
      <trkpt lat="44.59635" lon="-0.28226">
        <ele>41</ele>
        <time>2016-04-17T10:10:09Z</time>
      </trkpt>
      <trkpt lat="44.59633" lon="-0.28236">
        <ele>40</ele>
        <time>2016-04-17T10:10:15Z</time>
      </trkpt>
      <trkpt lat="44.59636" lon="-0.28247">
        <ele>37</ele>
        <time>2016-04-17T10:10:20Z</time>
      </trkpt>
      <trkpt lat="44.59637" lon="-0.28258">
        <ele>33</ele>
        <time>2016-04-17T10:10:28Z</time>
      </trkpt>
      <trkpt lat="44.59638" lon="-0.2827">
        <ele>29</ele>
        <time>2016-04-17T10:10:37Z</time>
      </trkpt>
      <trkpt lat="44.59639" lon="-0.28274">
        <ele>29</ele>
        <time>2016-04-17T10:10:56Z</time>
      </trkpt>
      <trkpt lat="44.5964" lon="-0.28289">
        <ele>29</ele>
        <time>2016-04-17T10:11:00Z</time>
      </trkpt>
      <trkpt lat="44.59633" lon="-0.28297">
        <ele>28</ele>
        <time>2016-04-17T10:11:41Z</time>
      </trkpt>
      <trkpt lat="44.59631" lon="-0.28295">
        <ele>27</ele>
        <time>2016-04-17T10:12:15Z</time>
      </trkpt>
      <trkpt lat="44.59632" lon="-0.28312">
        <ele>17</ele>
        <time>2016-04-17T10:12:19Z</time>
      </trkpt>
      <trkpt lat="44.59632" lon="-0.28312">
        <ele>17</ele>
        <time>2016-04-17T10:12:30Z</time>
      </trkpt>
      <trkpt lat="44.59624" lon="-0.28323">
        <ele>14</ele>
        <time>2016-04-17T10:12:34Z</time>
      </trkpt>
      <trkpt lat="44.59624" lon="-0.28323">
        <ele>14</ele>
        <time>2016-04-17T10:12:50Z</time>
      </trkpt>
      <trkpt lat="44.59612" lon="-0.28329">
        <ele>14</ele>
        <time>2016-04-17T10:12:54Z</time>
      </trkpt>
      <trkpt lat="44.59612" lon="-0.28329">
        <ele>14</ele>
        <time>2016-04-17T10:13:10Z</time>
      </trkpt>
      <trkpt lat="44.59613" lon="-0.28344">
        <ele>13</ele>
        <time>2016-04-17T10:13:14Z</time>
      </trkpt>
      <trkpt lat="44.59613" lon="-0.28344">
        <ele>13</ele>
        <time>2016-04-17T10:13:30Z</time>
      </trkpt>
      <trkpt lat="44.59606" lon="-0.28361">
        <ele>11</ele>
        <time>2016-04-17T10:13:34Z</time>
      </trkpt>
      <trkpt lat="44.59606" lon="-0.28361">
        <ele>11</ele>
        <time>2016-04-17T10:13:44Z</time>
      </trkpt>
      <trkpt lat="44.59603" lon="-0.28377">
        <ele>9</ele>
        <time>2016-04-17T10:13:48Z</time>
      </trkpt>
      <trkpt lat="44.59599" lon="-0.28388">
        <ele>10</ele>
        <time>2016-04-17T10:13:55Z</time>
      </trkpt>
      <trkpt lat="44.59598" lon="-0.28398">
        <ele>10</ele>
        <time>2016-04-17T10:14:02Z</time>
      </trkpt>
      <trkpt lat="44.59596" lon="-0.28411">
        <ele>11</ele>
        <time>2016-04-17T10:14:11Z</time>
      </trkpt>
      <trkpt lat="44.59593" lon="-0.28421">
        <ele>11</ele>
        <time>2016-04-17T10:14:16Z</time>
      </trkpt>
      <trkpt lat="44.59587" lon="-0.28429">
        <ele>12</ele>
        <time>2016-04-17T10:14:23Z</time>
      </trkpt>
      <trkpt lat="44.59584" lon="-0.28439">
        <ele>12</ele>
        <time>2016-04-17T10:14:28Z</time>
      </trkpt>
      <trkpt lat="44.59582" lon="-0.28449">
        <ele>13</ele>
        <time>2016-04-17T10:14:33Z</time>
      </trkpt>
      <trkpt lat="44.59574" lon="-0.28455">
        <ele>13</ele>
        <time>2016-04-17T10:14:39Z</time>
      </trkpt>
      <trkpt lat="44.59566" lon="-0.28459">
        <ele>15</ele>
        <time>2016-04-17T10:14:47Z</time>
      </trkpt>
      <trkpt lat="44.59565" lon="-0.2846">
        <ele>15</ele>
        <time>2016-04-17T10:15:03Z</time>
      </trkpt>
      <trkpt lat="44.59559" lon="-0.28472">
        <ele>15</ele>
        <time>2016-04-17T10:15:08Z</time>
      </trkpt>
      <trkpt lat="44.59551" lon="-0.28467">
        <ele>13</ele>
        <time>2016-04-17T10:15:16Z</time>
      </trkpt>
      <trkpt lat="44.59543" lon="-0.28468">
        <ele>11</ele>
        <time>2016-04-17T10:15:27Z</time>
      </trkpt>
      <trkpt lat="44.59534" lon="-0.28468">
        <ele>8</ele>
        <time>2016-04-17T10:15:37Z</time>
      </trkpt>
      <trkpt lat="44.59529" lon="-0.28468">
        <ele>6</ele>
        <time>2016-04-17T10:16:04Z</time>
      </trkpt>
      <trkpt lat="44.59517" lon="-0.28467">
        <ele>2</ele>
        <time>2016-04-17T10:16:08Z</time>
      </trkpt>
      <trkpt lat="44.59517" lon="-0.28467">
        <ele>2</ele>
        <time>2016-04-17T10:16:33Z</time>
      </trkpt>
      <trkpt lat="44.59523" lon="-0.28457">
        <ele>2</ele>
        <time>2016-04-17T10:16:42Z</time>
      </trkpt>
      <trkpt lat="44.59532" lon="-0.28457">
        <ele>2</ele>
        <time>2016-04-17T10:16:46Z</time>
      </trkpt>
      <trkpt lat="44.59532" lon="-0.28457">
        <ele>2</ele>
        <time>2016-04-17T10:16:57Z</time>
      </trkpt>
      <trkpt lat="44.59522" lon="-0.28465">
        <ele>2</ele>
        <time>2016-04-17T10:17:01Z</time>
      </trkpt>
      <trkpt lat="44.59522" lon="-0.28465">
        <ele>2</ele>
        <time>2016-04-17T10:18:02Z</time>
      </trkpt>
      <trkpt lat="44.59512" lon="-0.28491">
        <ele>3</ele>
        <time>2016-04-17T10:18:06Z</time>
      </trkpt>
      <trkpt lat="44.59512" lon="-0.28491">
        <ele>3</ele>
        <time>2016-04-17T10:18:13Z</time>
      </trkpt>
      <trkpt lat="44.59499" lon="-0.28494">
        <ele>4</ele>
        <time>2016-04-17T10:18:18Z</time>
      </trkpt>
      <trkpt lat="44.59491" lon="-0.28493">
        <ele>6</ele>
        <time>2016-04-17T10:18:24Z</time>
      </trkpt>
      <trkpt lat="44.59482" lon="-0.28492">
        <ele>8</ele>
        <time>2016-04-17T10:18:31Z</time>
      </trkpt>
      <trkpt lat="44.59475" lon="-0.28498">
        <ele>9</ele>
        <time>2016-04-17T10:18:38Z</time>
      </trkpt>
      <trkpt lat="44.59467" lon="-0.28501">
        <ele>11</ele>
        <time>2016-04-17T10:18:45Z</time>
      </trkpt>
      <trkpt lat="44.59463" lon="-0.28504">
        <ele>13</ele>
        <time>2016-04-17T10:19:03Z</time>
      </trkpt>
      <trkpt lat="44.59453" lon="-0.28501">
        <ele>17</ele>
        <time>2016-04-17T10:19:07Z</time>
      </trkpt>
      <trkpt lat="44.59453" lon="-0.28501">
        <ele>17</ele>
        <time>2016-04-17T10:19:23Z</time>
      </trkpt>
      <trkpt lat="44.5945" lon="-0.28487">
        <ele>18</ele>
        <time>2016-04-17T10:19:27Z</time>
      </trkpt>
      <trkpt lat="44.5945" lon="-0.28487">
        <ele>18</ele>
        <time>2016-04-17T10:20:26Z</time>
      </trkpt>
      <trkpt lat="44.5944" lon="-0.2849">
        <ele>17</ele>
        <time>2016-04-17T10:20:30Z</time>
      </trkpt>
      <trkpt lat="44.5944" lon="-0.2849">
        <ele>17</ele>
        <time>2016-04-17T10:20:40Z</time>
      </trkpt>
      <trkpt lat="44.59431" lon="-0.28478">
        <ele>17</ele>
        <time>2016-04-17T10:20:45Z</time>
      </trkpt>
      <trkpt lat="44.59428" lon="-0.28474">
        <ele>19</ele>
        <time>2016-04-17T10:21:39Z</time>
      </trkpt>
      <trkpt lat="44.59418" lon="-0.28466">
        <ele>19</ele>
        <time>2016-04-17T10:21:44Z</time>
      </trkpt>
      <trkpt lat="44.59418" lon="-0.28466">
        <ele>19</ele>
        <time>2016-04-17T10:21:52Z</time>
      </trkpt>
      <trkpt lat="44.59401" lon="-0.28471">
        <ele>20</ele>
        <time>2016-04-17T10:21:57Z</time>
      </trkpt>
      <trkpt lat="44.59398" lon="-0.28467">
        <ele>20</ele>
        <time>2016-04-17T10:22:09Z</time>
      </trkpt>
      <trkpt lat="44.59399" lon="-0.28453">
        <ele>20</ele>
        <time>2016-04-17T10:22:13Z</time>
      </trkpt>
      <trkpt lat="44.59399" lon="-0.28453">
        <ele>20</ele>
        <time>2016-04-17T10:22:26Z</time>
      </trkpt>
      <trkpt lat="44.59392" lon="-0.2844">
        <ele>19</ele>
        <time>2016-04-17T10:22:30Z</time>
      </trkpt>
      <trkpt lat="44.59392" lon="-0.2844">
        <ele>19</ele>
        <time>2016-04-17T10:22:44Z</time>
      </trkpt>
      <trkpt lat="44.59396" lon="-0.2841">
        <ele>19</ele>
        <time>2016-04-17T10:22:49Z</time>
      </trkpt>
      <trkpt lat="44.59396" lon="-0.2841">
        <ele>19</ele>
        <time>2016-04-17T10:22:56Z</time>
      </trkpt>
      <trkpt lat="44.59387" lon="-0.28424">
        <ele>19</ele>
        <time>2016-04-17T10:23:00Z</time>
      </trkpt>
      <trkpt lat="44.59387" lon="-0.28424">
        <ele>19</ele>
        <time>2016-04-17T10:23:16Z</time>
      </trkpt>
      <trkpt lat="44.5938" lon="-0.2841">
        <ele>18</ele>
        <time>2016-04-17T10:23:21Z</time>
      </trkpt>
      <trkpt lat="44.5938" lon="-0.2841">
        <ele>18</ele>
        <time>2016-04-17T10:23:32Z</time>
      </trkpt>
      <trkpt lat="44.59376" lon="-0.28391">
        <ele>19</ele>
        <time>2016-04-17T10:23:36Z</time>
      </trkpt>
      <trkpt lat="44.59376" lon="-0.28391">
        <ele>19</ele>
        <time>2016-04-17T10:23:49Z</time>
      </trkpt>
      <trkpt lat="44.59368" lon="-0.28372">
        <ele>19</ele>
        <time>2016-04-17T10:23:53Z</time>
      </trkpt>
      <trkpt lat="44.59368" lon="-0.28372">
        <ele>19</ele>
        <time>2016-04-17T10:24:15Z</time>
      </trkpt>
      <trkpt lat="44.59362" lon="-0.28361">
        <ele>19</ele>
        <time>2016-04-17T10:24:19Z</time>
      </trkpt>
      <trkpt lat="44.59362" lon="-0.28361">
        <ele>19</ele>
        <time>2016-04-17T10:24:42Z</time>
      </trkpt>
      <trkpt lat="44.59367" lon="-0.28377">
        <ele>19</ele>
        <time>2016-04-17T10:24:47Z</time>
      </trkpt>
      <trkpt lat="44.59367" lon="-0.28377">
        <ele>19</ele>
        <time>2016-04-17T10:24:53Z</time>
      </trkpt>
      <trkpt lat="44.59356" lon="-0.28379">
        <ele>19</ele>
        <time>2016-04-17T10:24:58Z</time>
      </trkpt>
      <trkpt lat="44.59356" lon="-0.28379">
        <ele>19</ele>
        <time>2016-04-17T10:25:05Z</time>
      </trkpt>
      <trkpt lat="44.59351" lon="-0.28365">
        <ele>19</ele>
        <time>2016-04-17T10:25:09Z</time>
      </trkpt>
      <trkpt lat="44.59351" lon="-0.28365">
        <ele>19</ele>
        <time>2016-04-17T10:25:27Z</time>
      </trkpt>
      <trkpt lat="44.59366" lon="-0.28361">
        <ele>19</ele>
        <time>2016-04-17T10:25:32Z</time>
      </trkpt>
      <trkpt lat="44.59366" lon="-0.28361">
        <ele>19</ele>
        <time>2016-04-17T10:26:23Z</time>
      </trkpt>
      <trkpt lat="44.59353" lon="-0.28353">
        <ele>20</ele>
        <time>2016-04-17T10:26:27Z</time>
      </trkpt>
      <trkpt lat="44.59353" lon="-0.28353">
        <ele>20</ele>
        <time>2016-04-17T10:26:40Z</time>
      </trkpt>
      <trkpt lat="44.59347" lon="-0.28338">
        <ele>20</ele>
        <time>2016-04-17T10:26:44Z</time>
      </trkpt>
      <trkpt lat="44.59347" lon="-0.28338">
        <ele>20</ele>
        <time>2016-04-17T10:26:48Z</time>
      </trkpt>
      <trkpt lat="44.5934" lon="-0.28322">
        <ele>20</ele>
        <time>2016-04-17T10:26:53Z</time>
      </trkpt>
      <trkpt lat="44.5934" lon="-0.28322">
        <ele>20</ele>
        <time>2016-04-17T10:27:17Z</time>
      </trkpt>
      <trkpt lat="44.59337" lon="-0.283">
        <ele>22</ele>
        <time>2016-04-17T10:27:21Z</time>
      </trkpt>
      <trkpt lat="44.59337" lon="-0.283">
        <ele>22</ele>
        <time>2016-04-17T10:27:34Z</time>
      </trkpt>
      <trkpt lat="44.59348" lon="-0.28297">
        <ele>20</ele>
        <time>2016-04-17T10:27:38Z</time>
      </trkpt>
      <trkpt lat="44.59354" lon="-0.28304">
        <ele>21</ele>
        <time>2016-04-17T10:27:51Z</time>
      </trkpt>
      <trkpt lat="44.59359" lon="-0.28313">
        <ele>21</ele>
        <time>2016-04-17T10:27:59Z</time>
      </trkpt>
      <trkpt lat="44.5936" lon="-0.28319">
        <ele>21</ele>
        <time>2016-04-17T10:28:30Z</time>
      </trkpt>
      <trkpt lat="44.59371" lon="-0.2833">
        <ele>23</ele>
        <time>2016-04-17T10:28:34Z</time>
      </trkpt>
      <trkpt lat="44.59379" lon="-0.28325">
        <ele>28</ele>
        <time>2016-04-17T10:28:53Z</time>
      </trkpt>
      <trkpt lat="44.59379" lon="-0.28325">
        <ele>28</ele>
        <time>2016-04-17T10:28:53Z</time>
      </trkpt>
    </trkseg>
  </trk>
</gpx>